<?xml version="1.0" encoding="UTF-8" standalone="no" ?>
<gpx xmlns="http://www.topografix.com/GPX/1/1" xmlns:xsi="http://www.w3.org/2001/XMLSchema-instance" xsi:schemaLocation="http://www.topografix.com/GPX/1/1 http://www.topografix.com/GPX/1/1/gpx.xsd" version="1.1" creator="VisuGPX - https://www.visugpx.com">
  <metadata>
    <name>83-D-Entrecasteaux</name>
    <desc><![CDATA[83-D-Entrecasteaux : les Coudourettes, les Bruguières, autour de la Bresque
2019-10-27]]></desc>
  </metadata>
  <trk>
    <name><![CDATA[2019-10-27-D-Entrecasteaux]]></name>
    <trkseg>
      <trkpt lat="43.51098" lon="6.24117">
        <ele>165.5</ele>
        <time>2019-10-27T08:30:46Z</time>
      </trkpt>
      <trkpt lat="43.51098" lon="6.24117">
        <ele>165.5</ele>
        <time>2019-10-27T08:30:47Z</time>
      </trkpt>
      <trkpt lat="43.51089" lon="6.24116">
        <ele>161.7</ele>
        <time>2019-10-27T08:33:29Z</time>
      </trkpt>
      <trkpt lat="43.5108" lon="6.2412">
        <ele>161.9</ele>
        <time>2019-10-27T08:33:51Z</time>
      </trkpt>
      <trkpt lat="43.51072" lon="6.24126">
        <ele>161.8</ele>
        <time>2019-10-27T08:33:58Z</time>
      </trkpt>
      <trkpt lat="43.51064" lon="6.24132">
        <ele>161.5</ele>
        <time>2019-10-27T08:34:05Z</time>
      </trkpt>
      <trkpt lat="43.51055" lon="6.24139">
        <ele>160.8</ele>
        <time>2019-10-27T08:34:13Z</time>
      </trkpt>
      <trkpt lat="43.51046" lon="6.24143">
        <ele>160</ele>
        <time>2019-10-27T08:34:21Z</time>
      </trkpt>
      <trkpt lat="43.51039" lon="6.24153">
        <ele>159.7</ele>
        <time>2019-10-27T08:34:29Z</time>
      </trkpt>
      <trkpt lat="43.5104" lon="6.24166">
        <ele>159.4</ele>
        <time>2019-10-27T08:34:35Z</time>
      </trkpt>
      <trkpt lat="43.51046" lon="6.24177">
        <ele>158.5</ele>
        <time>2019-10-27T08:34:44Z</time>
      </trkpt>
      <trkpt lat="43.5105" lon="6.24189">
        <ele>157.6</ele>
        <time>2019-10-27T08:34:53Z</time>
      </trkpt>
      <trkpt lat="43.51053" lon="6.24201">
        <ele>157.2</ele>
        <time>2019-10-27T08:35:07Z</time>
      </trkpt>
      <trkpt lat="43.5106" lon="6.24192">
        <ele>156.8</ele>
        <time>2019-10-27T08:35:32Z</time>
      </trkpt>
      <trkpt lat="43.51067" lon="6.24184">
        <ele>156.5</ele>
        <time>2019-10-27T08:35:50Z</time>
      </trkpt>
      <trkpt lat="43.51075" lon="6.24192">
        <ele>156.3</ele>
        <time>2019-10-27T08:36:03Z</time>
      </trkpt>
      <trkpt lat="43.51077" lon="6.24205">
        <ele>156.2</ele>
        <time>2019-10-27T08:38:10Z</time>
      </trkpt>
      <trkpt lat="43.51078" lon="6.24217">
        <ele>156.4</ele>
        <time>2019-10-27T08:38:25Z</time>
      </trkpt>
      <trkpt lat="43.51074" lon="6.24229">
        <ele>156.3</ele>
        <time>2019-10-27T08:38:33Z</time>
      </trkpt>
      <trkpt lat="43.51069" lon="6.2424">
        <ele>156.7</ele>
        <time>2019-10-27T08:39:13Z</time>
      </trkpt>
      <trkpt lat="43.51062" lon="6.24247">
        <ele>157.2</ele>
        <time>2019-10-27T08:39:20Z</time>
      </trkpt>
      <trkpt lat="43.51053" lon="6.24252">
        <ele>157.2</ele>
        <time>2019-10-27T08:39:27Z</time>
      </trkpt>
      <trkpt lat="43.51044" lon="6.24255">
        <ele>157.1</ele>
        <time>2019-10-27T08:39:34Z</time>
      </trkpt>
      <trkpt lat="43.51035" lon="6.24254">
        <ele>157.3</ele>
        <time>2019-10-27T08:39:41Z</time>
      </trkpt>
      <trkpt lat="43.51025" lon="6.24252">
        <ele>157.3</ele>
        <time>2019-10-27T08:39:49Z</time>
      </trkpt>
      <trkpt lat="43.51016" lon="6.24254">
        <ele>157.4</ele>
        <time>2019-10-27T08:39:58Z</time>
      </trkpt>
      <trkpt lat="43.51011" lon="6.24265">
        <ele>157.6</ele>
        <time>2019-10-27T08:40:17Z</time>
      </trkpt>
      <trkpt lat="43.51006" lon="6.24276">
        <ele>158</ele>
        <time>2019-10-27T08:40:47Z</time>
      </trkpt>
      <trkpt lat="43.50997" lon="6.24279">
        <ele>158.4</ele>
        <time>2019-10-27T08:40:53Z</time>
      </trkpt>
      <trkpt lat="43.50987" lon="6.24281">
        <ele>159.1</ele>
        <time>2019-10-27T08:41:01Z</time>
      </trkpt>
      <trkpt lat="43.50979" lon="6.24288">
        <ele>159.4</ele>
        <time>2019-10-27T08:41:07Z</time>
      </trkpt>
      <trkpt lat="43.5097" lon="6.24294">
        <ele>159.8</ele>
        <time>2019-10-27T08:41:13Z</time>
      </trkpt>
      <trkpt lat="43.50962" lon="6.24302">
        <ele>160.1</ele>
        <time>2019-10-27T08:41:20Z</time>
      </trkpt>
      <trkpt lat="43.50953" lon="6.24311">
        <ele>160.3</ele>
        <time>2019-10-27T08:41:27Z</time>
      </trkpt>
      <trkpt lat="43.50945" lon="6.24319">
        <ele>160</ele>
        <time>2019-10-27T08:41:34Z</time>
      </trkpt>
      <trkpt lat="43.50939" lon="6.24328">
        <ele>159.8</ele>
        <time>2019-10-27T08:41:41Z</time>
      </trkpt>
      <trkpt lat="43.50932" lon="6.24338">
        <ele>159.5</ele>
        <time>2019-10-27T08:41:48Z</time>
      </trkpt>
      <trkpt lat="43.50925" lon="6.24348">
        <ele>159.2</ele>
        <time>2019-10-27T08:41:56Z</time>
      </trkpt>
      <trkpt lat="43.50918" lon="6.24356">
        <ele>158.7</ele>
        <time>2019-10-27T08:42:04Z</time>
      </trkpt>
      <trkpt lat="43.50911" lon="6.24365">
        <ele>158</ele>
        <time>2019-10-27T08:42:12Z</time>
      </trkpt>
      <trkpt lat="43.50902" lon="6.24371">
        <ele>157.9</ele>
        <time>2019-10-27T08:42:21Z</time>
      </trkpt>
      <trkpt lat="43.50893" lon="6.24376">
        <ele>158.2</ele>
        <time>2019-10-27T08:42:28Z</time>
      </trkpt>
      <trkpt lat="43.50887" lon="6.24386">
        <ele>158.7</ele>
        <time>2019-10-27T08:42:36Z</time>
      </trkpt>
      <trkpt lat="43.50879" lon="6.24395">
        <ele>159</ele>
        <time>2019-10-27T08:42:44Z</time>
      </trkpt>
      <trkpt lat="43.50874" lon="6.24407">
        <ele>159.7</ele>
        <time>2019-10-27T08:42:52Z</time>
      </trkpt>
      <trkpt lat="43.50869" lon="6.24417">
        <ele>160.3</ele>
        <time>2019-10-27T08:43:00Z</time>
      </trkpt>
      <trkpt lat="43.50863" lon="6.24427">
        <ele>160.7</ele>
        <time>2019-10-27T08:43:09Z</time>
      </trkpt>
      <trkpt lat="43.50857" lon="6.24437">
        <ele>161.3</ele>
        <time>2019-10-27T08:43:18Z</time>
      </trkpt>
      <trkpt lat="43.50849" lon="6.24445">
        <ele>163.5</ele>
        <time>2019-10-27T08:43:31Z</time>
      </trkpt>
      <trkpt lat="43.50841" lon="6.2445">
        <ele>164.5</ele>
        <time>2019-10-27T08:43:41Z</time>
      </trkpt>
      <trkpt lat="43.50831" lon="6.24451">
        <ele>166.3</ele>
        <time>2019-10-27T08:43:52Z</time>
      </trkpt>
      <trkpt lat="43.50823" lon="6.24447">
        <ele>166.9</ele>
        <time>2019-10-27T08:44:01Z</time>
      </trkpt>
      <trkpt lat="43.50814" lon="6.24444">
        <ele>167.1</ele>
        <time>2019-10-27T08:44:10Z</time>
      </trkpt>
      <trkpt lat="43.50805" lon="6.24445">
        <ele>167.4</ele>
        <time>2019-10-27T08:44:18Z</time>
      </trkpt>
      <trkpt lat="43.50795" lon="6.24445">
        <ele>167.8</ele>
        <time>2019-10-27T08:44:26Z</time>
      </trkpt>
      <trkpt lat="43.50786" lon="6.24448">
        <ele>167.7</ele>
        <time>2019-10-27T08:44:35Z</time>
      </trkpt>
      <trkpt lat="43.50777" lon="6.24454">
        <ele>167.5</ele>
        <time>2019-10-27T08:44:44Z</time>
      </trkpt>
      <trkpt lat="43.50769" lon="6.2446">
        <ele>167.2</ele>
        <time>2019-10-27T08:44:55Z</time>
      </trkpt>
      <trkpt lat="43.50762" lon="6.24468">
        <ele>167.1</ele>
        <time>2019-10-27T08:45:05Z</time>
      </trkpt>
      <trkpt lat="43.50753" lon="6.24475">
        <ele>167.2</ele>
        <time>2019-10-27T08:45:17Z</time>
      </trkpt>
      <trkpt lat="43.50746" lon="6.24483">
        <ele>166.9</ele>
        <time>2019-10-27T08:45:24Z</time>
      </trkpt>
      <trkpt lat="43.50739" lon="6.24492">
        <ele>167.3</ele>
        <time>2019-10-27T08:45:33Z</time>
      </trkpt>
      <trkpt lat="43.50733" lon="6.24501">
        <ele>167.6</ele>
        <time>2019-10-27T08:45:40Z</time>
      </trkpt>
      <trkpt lat="43.50727" lon="6.24512">
        <ele>167.8</ele>
        <time>2019-10-27T08:45:51Z</time>
      </trkpt>
      <trkpt lat="43.5072" lon="6.24521">
        <ele>167.8</ele>
        <time>2019-10-27T08:45:56Z</time>
      </trkpt>
      <trkpt lat="43.50712" lon="6.24528">
        <ele>167.9</ele>
        <time>2019-10-27T08:46:03Z</time>
      </trkpt>
      <trkpt lat="43.50705" lon="6.24537">
        <ele>167.9</ele>
        <time>2019-10-27T08:46:13Z</time>
      </trkpt>
      <trkpt lat="43.50696" lon="6.24536">
        <ele>168.9</ele>
        <time>2019-10-27T08:46:32Z</time>
      </trkpt>
      <trkpt lat="43.5069" lon="6.24526">
        <ele>171.2</ele>
        <time>2019-10-27T08:46:49Z</time>
      </trkpt>
      <trkpt lat="43.50688" lon="6.24513">
        <ele>172.4</ele>
        <time>2019-10-27T08:47:01Z</time>
      </trkpt>
      <trkpt lat="43.5068" lon="6.24503">
        <ele>173.7</ele>
        <time>2019-10-27T08:47:10Z</time>
      </trkpt>
      <trkpt lat="43.50671" lon="6.24505">
        <ele>175.1</ele>
        <time>2019-10-27T08:47:18Z</time>
      </trkpt>
      <trkpt lat="43.50663" lon="6.24511">
        <ele>176.7</ele>
        <time>2019-10-27T08:47:28Z</time>
      </trkpt>
      <trkpt lat="43.50654" lon="6.24511">
        <ele>179</ele>
        <time>2019-10-27T08:47:41Z</time>
      </trkpt>
      <trkpt lat="43.50644" lon="6.2451">
        <ele>181.4</ele>
        <time>2019-10-27T08:47:58Z</time>
      </trkpt>
      <trkpt lat="43.50635" lon="6.24514">
        <ele>183.7</ele>
        <time>2019-10-27T08:48:16Z</time>
      </trkpt>
      <trkpt lat="43.50625" lon="6.24514">
        <ele>185.5</ele>
        <time>2019-10-27T08:48:29Z</time>
      </trkpt>
      <trkpt lat="43.50616" lon="6.24515">
        <ele>186.5</ele>
        <time>2019-10-27T08:48:41Z</time>
      </trkpt>
      <trkpt lat="43.50607" lon="6.24518">
        <ele>188.3</ele>
        <time>2019-10-27T08:48:55Z</time>
      </trkpt>
      <trkpt lat="43.50599" lon="6.24514">
        <ele>190.6</ele>
        <time>2019-10-27T08:49:17Z</time>
      </trkpt>
      <trkpt lat="43.5059" lon="6.24507">
        <ele>192.1</ele>
        <time>2019-10-27T08:49:29Z</time>
      </trkpt>
      <trkpt lat="43.50581" lon="6.24507">
        <ele>193.5</ele>
        <time>2019-10-27T08:49:39Z</time>
      </trkpt>
      <trkpt lat="43.50571" lon="6.24507">
        <ele>194.5</ele>
        <time>2019-10-27T08:49:46Z</time>
      </trkpt>
      <trkpt lat="43.50562" lon="6.24504">
        <ele>195.4</ele>
        <time>2019-10-27T08:49:56Z</time>
      </trkpt>
      <trkpt lat="43.50552" lon="6.24503">
        <ele>196.8</ele>
        <time>2019-10-27T08:52:32Z</time>
      </trkpt>
      <trkpt lat="43.50547" lon="6.24492">
        <ele>197.2</ele>
        <time>2019-10-27T08:52:51Z</time>
      </trkpt>
      <trkpt lat="43.50538" lon="6.24491">
        <ele>197.6</ele>
        <time>2019-10-27T08:53:04Z</time>
      </trkpt>
      <trkpt lat="43.50529" lon="6.24486">
        <ele>198.4</ele>
        <time>2019-10-27T08:53:17Z</time>
      </trkpt>
      <trkpt lat="43.50522" lon="6.24479">
        <ele>198.9</ele>
        <time>2019-10-27T08:53:27Z</time>
      </trkpt>
      <trkpt lat="43.50514" lon="6.24473">
        <ele>200.1</ele>
        <time>2019-10-27T08:53:40Z</time>
      </trkpt>
      <trkpt lat="43.50505" lon="6.24467">
        <ele>201.7</ele>
        <time>2019-10-27T08:53:51Z</time>
      </trkpt>
      <trkpt lat="43.50495" lon="6.24464">
        <ele>202.9</ele>
        <time>2019-10-27T08:54:01Z</time>
      </trkpt>
      <trkpt lat="43.50486" lon="6.24459">
        <ele>205</ele>
        <time>2019-10-27T08:54:17Z</time>
      </trkpt>
      <trkpt lat="43.50478" lon="6.24453">
        <ele>206.1</ele>
        <time>2019-10-27T08:54:29Z</time>
      </trkpt>
      <trkpt lat="43.5047" lon="6.24445">
        <ele>206</ele>
        <time>2019-10-27T08:54:42Z</time>
      </trkpt>
      <trkpt lat="43.50463" lon="6.24438">
        <ele>205.7</ele>
        <time>2019-10-27T08:54:52Z</time>
      </trkpt>
      <trkpt lat="43.50453" lon="6.24438">
        <ele>204.8</ele>
        <time>2019-10-27T08:55:02Z</time>
      </trkpt>
      <trkpt lat="43.50448" lon="6.24449">
        <ele>204.2</ele>
        <time>2019-10-27T08:55:09Z</time>
      </trkpt>
      <trkpt lat="43.50443" lon="6.2446">
        <ele>203.5</ele>
        <time>2019-10-27T08:55:17Z</time>
      </trkpt>
      <trkpt lat="43.50452" lon="6.24455">
        <ele>203.7</ele>
        <time>2019-10-27T08:55:58Z</time>
      </trkpt>
      <trkpt lat="43.50448" lon="6.24443">
        <ele>203.4</ele>
        <time>2019-10-27T08:56:08Z</time>
      </trkpt>
      <trkpt lat="43.50439" lon="6.24438">
        <ele>202.8</ele>
        <time>2019-10-27T08:56:16Z</time>
      </trkpt>
      <trkpt lat="43.50429" lon="6.24437">
        <ele>202.1</ele>
        <time>2019-10-27T08:56:24Z</time>
      </trkpt>
      <trkpt lat="43.5042" lon="6.24438">
        <ele>201.4</ele>
        <time>2019-10-27T08:56:32Z</time>
      </trkpt>
      <trkpt lat="43.50411" lon="6.24439">
        <ele>201</ele>
        <time>2019-10-27T08:56:39Z</time>
      </trkpt>
      <trkpt lat="43.50401" lon="6.2444">
        <ele>200.8</ele>
        <time>2019-10-27T08:56:47Z</time>
      </trkpt>
      <trkpt lat="43.50392" lon="6.24441">
        <ele>200.6</ele>
        <time>2019-10-27T08:56:55Z</time>
      </trkpt>
      <trkpt lat="43.50383" lon="6.24435">
        <ele>200.8</ele>
        <time>2019-10-27T08:57:04Z</time>
      </trkpt>
      <trkpt lat="43.50375" lon="6.24427">
        <ele>201</ele>
        <time>2019-10-27T08:57:13Z</time>
      </trkpt>
      <trkpt lat="43.50367" lon="6.2442">
        <ele>201.3</ele>
        <time>2019-10-27T08:57:25Z</time>
      </trkpt>
      <trkpt lat="43.50359" lon="6.24415">
        <ele>202.5</ele>
        <time>2019-10-27T08:57:40Z</time>
      </trkpt>
      <trkpt lat="43.5035" lon="6.2441">
        <ele>205.4</ele>
        <time>2019-10-27T08:58:28Z</time>
      </trkpt>
      <trkpt lat="43.50343" lon="6.24404">
        <ele>207.8</ele>
        <time>2019-10-27T08:59:32Z</time>
      </trkpt>
      <trkpt lat="43.50341" lon="6.24391">
        <ele>208.4</ele>
        <time>2019-10-27T08:59:47Z</time>
      </trkpt>
      <trkpt lat="43.50336" lon="6.2438">
        <ele>209.3</ele>
        <time>2019-10-27T09:00:03Z</time>
      </trkpt>
      <trkpt lat="43.50331" lon="6.2437">
        <ele>211</ele>
        <time>2019-10-27T09:00:19Z</time>
      </trkpt>
      <trkpt lat="43.50324" lon="6.24361">
        <ele>212.8</ele>
        <time>2019-10-27T09:00:32Z</time>
      </trkpt>
      <trkpt lat="43.5032" lon="6.2435">
        <ele>214.4</ele>
        <time>2019-10-27T09:00:44Z</time>
      </trkpt>
      <trkpt lat="43.50316" lon="6.24338">
        <ele>216.3</ele>
        <time>2019-10-27T09:01:01Z</time>
      </trkpt>
      <trkpt lat="43.5031" lon="6.24328">
        <ele>218.2</ele>
        <time>2019-10-27T09:01:17Z</time>
      </trkpt>
      <trkpt lat="43.50307" lon="6.24317">
        <ele>218.9</ele>
        <time>2019-10-27T09:01:29Z</time>
      </trkpt>
      <trkpt lat="43.50303" lon="6.24305">
        <ele>219.4</ele>
        <time>2019-10-27T09:01:39Z</time>
      </trkpt>
      <trkpt lat="43.50297" lon="6.24295">
        <ele>219.4</ele>
        <time>2019-10-27T09:01:46Z</time>
      </trkpt>
      <trkpt lat="43.50291" lon="6.24284">
        <ele>219.6</ele>
        <time>2019-10-27T09:01:54Z</time>
      </trkpt>
      <trkpt lat="43.50284" lon="6.24275">
        <ele>220.2</ele>
        <time>2019-10-27T09:02:04Z</time>
      </trkpt>
      <trkpt lat="43.50278" lon="6.24264">
        <ele>220.7</ele>
        <time>2019-10-27T09:02:13Z</time>
      </trkpt>
      <trkpt lat="43.50272" lon="6.24253">
        <ele>221.2</ele>
        <time>2019-10-27T09:02:23Z</time>
      </trkpt>
      <trkpt lat="43.50267" lon="6.24242">
        <ele>221.6</ele>
        <time>2019-10-27T09:02:34Z</time>
      </trkpt>
      <trkpt lat="43.50265" lon="6.2423">
        <ele>221.5</ele>
        <time>2019-10-27T09:02:44Z</time>
      </trkpt>
      <trkpt lat="43.5026" lon="6.2422">
        <ele>221.1</ele>
        <time>2019-10-27T09:02:53Z</time>
      </trkpt>
      <trkpt lat="43.50259" lon="6.24206">
        <ele>220</ele>
        <time>2019-10-27T09:03:05Z</time>
      </trkpt>
      <trkpt lat="43.50257" lon="6.24194">
        <ele>218.8</ele>
        <time>2019-10-27T09:03:17Z</time>
      </trkpt>
      <trkpt lat="43.50253" lon="6.24182">
        <ele>217.5</ele>
        <time>2019-10-27T09:03:29Z</time>
      </trkpt>
      <trkpt lat="43.5025" lon="6.2417">
        <ele>216.6</ele>
        <time>2019-10-27T09:03:42Z</time>
      </trkpt>
      <trkpt lat="43.50244" lon="6.24159">
        <ele>215</ele>
        <time>2019-10-27T09:03:57Z</time>
      </trkpt>
      <trkpt lat="43.50238" lon="6.24149">
        <ele>213.9</ele>
        <time>2019-10-27T09:04:32Z</time>
      </trkpt>
      <trkpt lat="43.50231" lon="6.2414">
        <ele>214</ele>
        <time>2019-10-27T09:04:55Z</time>
      </trkpt>
      <trkpt lat="43.50222" lon="6.24138">
        <ele>213.7</ele>
        <time>2019-10-27T09:05:15Z</time>
      </trkpt>
      <trkpt lat="43.50215" lon="6.24131">
        <ele>214</ele>
        <time>2019-10-27T09:05:28Z</time>
      </trkpt>
      <trkpt lat="43.50209" lon="6.2412">
        <ele>214.1</ele>
        <time>2019-10-27T09:05:40Z</time>
      </trkpt>
      <trkpt lat="43.50202" lon="6.24112">
        <ele>214.2</ele>
        <time>2019-10-27T09:05:48Z</time>
      </trkpt>
      <trkpt lat="43.50196" lon="6.24103">
        <ele>214.3</ele>
        <time>2019-10-27T09:06:03Z</time>
      </trkpt>
      <trkpt lat="43.50186" lon="6.24097">
        <ele>213.1</ele>
        <time>2019-10-27T09:06:17Z</time>
      </trkpt>
      <trkpt lat="43.50177" lon="6.24093">
        <ele>212.2</ele>
        <time>2019-10-27T09:06:26Z</time>
      </trkpt>
      <trkpt lat="43.5017" lon="6.24085">
        <ele>211.1</ele>
        <time>2019-10-27T09:06:35Z</time>
      </trkpt>
      <trkpt lat="43.5016" lon="6.24082">
        <ele>209.5</ele>
        <time>2019-10-27T09:06:51Z</time>
      </trkpt>
      <trkpt lat="43.50152" lon="6.24087">
        <ele>207.1</ele>
        <time>2019-10-27T09:07:08Z</time>
      </trkpt>
      <trkpt lat="43.50143" lon="6.24083">
        <ele>205.6</ele>
        <time>2019-10-27T09:07:24Z</time>
      </trkpt>
      <trkpt lat="43.50135" lon="6.24076">
        <ele>204.4</ele>
        <time>2019-10-27T09:07:36Z</time>
      </trkpt>
      <trkpt lat="43.50127" lon="6.24069">
        <ele>202.8</ele>
        <time>2019-10-27T09:07:45Z</time>
      </trkpt>
      <trkpt lat="43.50119" lon="6.24062">
        <ele>201.4</ele>
        <time>2019-10-27T09:07:56Z</time>
      </trkpt>
      <trkpt lat="43.50111" lon="6.24056">
        <ele>200.3</ele>
        <time>2019-10-27T09:08:06Z</time>
      </trkpt>
      <trkpt lat="43.50103" lon="6.24048">
        <ele>199</ele>
        <time>2019-10-27T09:08:16Z</time>
      </trkpt>
      <trkpt lat="43.50094" lon="6.24042">
        <ele>197.5</ele>
        <time>2019-10-27T09:08:29Z</time>
      </trkpt>
      <trkpt lat="43.50086" lon="6.24038">
        <ele>196.2</ele>
        <time>2019-10-27T09:08:40Z</time>
      </trkpt>
      <trkpt lat="43.50078" lon="6.2403">
        <ele>195.5</ele>
        <time>2019-10-27T09:08:50Z</time>
      </trkpt>
      <trkpt lat="43.5007" lon="6.24023">
        <ele>194.5</ele>
        <time>2019-10-27T09:08:59Z</time>
      </trkpt>
      <trkpt lat="43.50077" lon="6.24015">
        <ele>192</ele>
        <time>2019-10-27T09:10:55Z</time>
      </trkpt>
      <trkpt lat="43.50068" lon="6.24016">
        <ele>192.5</ele>
        <time>2019-10-27T09:11:43Z</time>
      </trkpt>
      <trkpt lat="43.5007" lon="6.24028">
        <ele>193.6</ele>
        <time>2019-10-27T09:17:04Z</time>
      </trkpt>
      <trkpt lat="43.50062" lon="6.24018">
        <ele>193.3</ele>
        <time>2019-10-27T09:17:56Z</time>
      </trkpt>
      <trkpt lat="43.50054" lon="6.2401">
        <ele>192.9</ele>
        <time>2019-10-27T09:18:04Z</time>
      </trkpt>
      <trkpt lat="43.50047" lon="6.24002">
        <ele>192</ele>
        <time>2019-10-27T09:18:18Z</time>
      </trkpt>
      <trkpt lat="43.50041" lon="6.23993">
        <ele>190.4</ele>
        <time>2019-10-27T09:19:10Z</time>
      </trkpt>
      <trkpt lat="43.50032" lon="6.2399">
        <ele>189.5</ele>
        <time>2019-10-27T09:19:16Z</time>
      </trkpt>
      <trkpt lat="43.50022" lon="6.23994">
        <ele>187.3</ele>
        <time>2019-10-27T09:19:37Z</time>
      </trkpt>
      <trkpt lat="43.50012" lon="6.23992">
        <ele>186.7</ele>
        <time>2019-10-27T09:19:43Z</time>
      </trkpt>
      <trkpt lat="43.50002" lon="6.23994">
        <ele>185.8</ele>
        <time>2019-10-27T09:19:52Z</time>
      </trkpt>
      <trkpt lat="43.49993" lon="6.23999">
        <ele>184.8</ele>
        <time>2019-10-27T09:20:01Z</time>
      </trkpt>
      <trkpt lat="43.49984" lon="6.24001">
        <ele>184.1</ele>
        <time>2019-10-27T09:20:11Z</time>
      </trkpt>
      <trkpt lat="43.49975" lon="6.23997">
        <ele>183.7</ele>
        <time>2019-10-27T09:20:25Z</time>
      </trkpt>
      <trkpt lat="43.49966" lon="6.23993">
        <ele>183.7</ele>
        <time>2019-10-27T09:20:37Z</time>
      </trkpt>
      <trkpt lat="43.49957" lon="6.23992">
        <ele>184.5</ele>
        <time>2019-10-27T09:20:46Z</time>
      </trkpt>
      <trkpt lat="43.49947" lon="6.2399">
        <ele>185</ele>
        <time>2019-10-27T09:20:55Z</time>
      </trkpt>
      <trkpt lat="43.49938" lon="6.23988">
        <ele>185.1</ele>
        <time>2019-10-27T09:21:02Z</time>
      </trkpt>
      <trkpt lat="43.49929" lon="6.23987">
        <ele>185.3</ele>
        <time>2019-10-27T09:21:08Z</time>
      </trkpt>
      <trkpt lat="43.4992" lon="6.23986">
        <ele>185.8</ele>
        <time>2019-10-27T09:21:16Z</time>
      </trkpt>
      <trkpt lat="43.49911" lon="6.23986">
        <ele>186.5</ele>
        <time>2019-10-27T09:21:23Z</time>
      </trkpt>
      <trkpt lat="43.49901" lon="6.23988">
        <ele>187.1</ele>
        <time>2019-10-27T09:21:33Z</time>
      </trkpt>
      <trkpt lat="43.49892" lon="6.23992">
        <ele>187.3</ele>
        <time>2019-10-27T09:21:43Z</time>
      </trkpt>
      <trkpt lat="43.49883" lon="6.23997">
        <ele>188</ele>
        <time>2019-10-27T09:21:53Z</time>
      </trkpt>
      <trkpt lat="43.49873" lon="6.23999">
        <ele>189.2</ele>
        <time>2019-10-27T09:22:06Z</time>
      </trkpt>
      <trkpt lat="43.49864" lon="6.24002">
        <ele>189.8</ele>
        <time>2019-10-27T09:22:17Z</time>
      </trkpt>
      <trkpt lat="43.49855" lon="6.24005">
        <ele>190.1</ele>
        <time>2019-10-27T09:22:24Z</time>
      </trkpt>
      <trkpt lat="43.49847" lon="6.24009">
        <ele>191</ele>
        <time>2019-10-27T09:22:32Z</time>
      </trkpt>
      <trkpt lat="43.49838" lon="6.24012">
        <ele>190.8</ele>
        <time>2019-10-27T09:22:41Z</time>
      </trkpt>
      <trkpt lat="43.4983" lon="6.24019">
        <ele>191.5</ele>
        <time>2019-10-27T09:22:53Z</time>
      </trkpt>
      <trkpt lat="43.49827" lon="6.24033">
        <ele>192.4</ele>
        <time>2019-10-27T09:23:04Z</time>
      </trkpt>
      <trkpt lat="43.49826" lon="6.24046">
        <ele>192.7</ele>
        <time>2019-10-27T09:23:12Z</time>
      </trkpt>
      <trkpt lat="43.49822" lon="6.24058">
        <ele>193.7</ele>
        <time>2019-10-27T09:23:27Z</time>
      </trkpt>
      <trkpt lat="43.49823" lon="6.2407">
        <ele>194.4</ele>
        <time>2019-10-27T09:23:51Z</time>
      </trkpt>
      <trkpt lat="43.49825" lon="6.24083">
        <ele>194.7</ele>
        <time>2019-10-27T09:24:33Z</time>
      </trkpt>
      <trkpt lat="43.49818" lon="6.24095">
        <ele>194.9</ele>
        <time>2019-10-27T09:24:43Z</time>
      </trkpt>
      <trkpt lat="43.49816" lon="6.24108">
        <ele>194.7</ele>
        <time>2019-10-27T09:24:50Z</time>
      </trkpt>
      <trkpt lat="43.49816" lon="6.24121">
        <ele>195.1</ele>
        <time>2019-10-27T09:24:59Z</time>
      </trkpt>
      <trkpt lat="43.49815" lon="6.24134">
        <ele>195.5</ele>
        <time>2019-10-27T09:25:11Z</time>
      </trkpt>
      <trkpt lat="43.49809" lon="6.24144">
        <ele>195.9</ele>
        <time>2019-10-27T09:25:20Z</time>
      </trkpt>
      <trkpt lat="43.49804" lon="6.24156">
        <ele>196.1</ele>
        <time>2019-10-27T09:25:29Z</time>
      </trkpt>
      <trkpt lat="43.498" lon="6.24167">
        <ele>196.6</ele>
        <time>2019-10-27T09:25:37Z</time>
      </trkpt>
      <trkpt lat="43.49796" lon="6.2418">
        <ele>197.1</ele>
        <time>2019-10-27T09:25:47Z</time>
      </trkpt>
      <trkpt lat="43.4979" lon="6.2419">
        <ele>197.4</ele>
        <time>2019-10-27T09:25:59Z</time>
      </trkpt>
      <trkpt lat="43.49784" lon="6.24199">
        <ele>197.7</ele>
        <time>2019-10-27T09:26:10Z</time>
      </trkpt>
      <trkpt lat="43.49777" lon="6.24208">
        <ele>198.2</ele>
        <time>2019-10-27T09:26:22Z</time>
      </trkpt>
      <trkpt lat="43.49774" lon="6.2422">
        <ele>198.9</ele>
        <time>2019-10-27T09:26:50Z</time>
      </trkpt>
      <trkpt lat="43.49774" lon="6.24234">
        <ele>198.8</ele>
        <time>2019-10-27T09:27:34Z</time>
      </trkpt>
      <trkpt lat="43.49773" lon="6.24247">
        <ele>198.6</ele>
        <time>2019-10-27T09:28:26Z</time>
      </trkpt>
      <trkpt lat="43.49774" lon="6.2426">
        <ele>199</ele>
        <time>2019-10-27T09:28:47Z</time>
      </trkpt>
      <trkpt lat="43.49774" lon="6.24273">
        <ele>198.9</ele>
        <time>2019-10-27T09:28:56Z</time>
      </trkpt>
      <trkpt lat="43.49771" lon="6.24285">
        <ele>198.5</ele>
        <time>2019-10-27T09:29:08Z</time>
      </trkpt>
      <trkpt lat="43.49769" lon="6.24299">
        <ele>198.1</ele>
        <time>2019-10-27T09:29:19Z</time>
      </trkpt>
      <trkpt lat="43.49778" lon="6.24305">
        <ele>198.2</ele>
        <time>2019-10-27T09:30:34Z</time>
      </trkpt>
      <trkpt lat="43.49784" lon="6.24314">
        <ele>198</ele>
        <time>2019-10-27T09:30:42Z</time>
      </trkpt>
      <trkpt lat="43.49786" lon="6.24327">
        <ele>197.3</ele>
        <time>2019-10-27T09:30:52Z</time>
      </trkpt>
      <trkpt lat="43.49784" lon="6.2434">
        <ele>197.5</ele>
        <time>2019-10-27T09:31:01Z</time>
      </trkpt>
      <trkpt lat="43.49783" lon="6.24353">
        <ele>197.1</ele>
        <time>2019-10-27T09:31:10Z</time>
      </trkpt>
      <trkpt lat="43.49781" lon="6.24366">
        <ele>196.7</ele>
        <time>2019-10-27T09:31:20Z</time>
      </trkpt>
      <trkpt lat="43.4978" lon="6.2438">
        <ele>196.2</ele>
        <time>2019-10-27T09:31:36Z</time>
      </trkpt>
      <trkpt lat="43.49783" lon="6.24392">
        <ele>195.9</ele>
        <time>2019-10-27T09:31:46Z</time>
      </trkpt>
      <trkpt lat="43.49785" lon="6.24405">
        <ele>195.5</ele>
        <time>2019-10-27T09:31:52Z</time>
      </trkpt>
      <trkpt lat="43.49786" lon="6.24418">
        <ele>194.8</ele>
        <time>2019-10-27T09:32:01Z</time>
      </trkpt>
      <trkpt lat="43.49786" lon="6.24431">
        <ele>194.8</ele>
        <time>2019-10-27T09:32:09Z</time>
      </trkpt>
      <trkpt lat="43.49784" lon="6.24445">
        <ele>194.7</ele>
        <time>2019-10-27T09:32:17Z</time>
      </trkpt>
      <trkpt lat="43.49782" lon="6.24457">
        <ele>194.3</ele>
        <time>2019-10-27T09:32:25Z</time>
      </trkpt>
      <trkpt lat="43.49779" lon="6.24469">
        <ele>194.1</ele>
        <time>2019-10-27T09:32:34Z</time>
      </trkpt>
      <trkpt lat="43.49769" lon="6.24465">
        <ele>193.9</ele>
        <time>2019-10-27T09:32:49Z</time>
      </trkpt>
      <trkpt lat="43.4976" lon="6.24457">
        <ele>193.3</ele>
        <time>2019-10-27T09:33:07Z</time>
      </trkpt>
      <trkpt lat="43.4975" lon="6.24455">
        <ele>192.2</ele>
        <time>2019-10-27T09:34:03Z</time>
      </trkpt>
      <trkpt lat="43.49741" lon="6.2445">
        <ele>191.7</ele>
        <time>2019-10-27T09:34:10Z</time>
      </trkpt>
      <trkpt lat="43.49733" lon="6.24459">
        <ele>191.3</ele>
        <time>2019-10-27T09:34:34Z</time>
      </trkpt>
      <trkpt lat="43.49732" lon="6.24471">
        <ele>191.2</ele>
        <time>2019-10-27T09:34:42Z</time>
      </trkpt>
      <trkpt lat="43.49723" lon="6.24467">
        <ele>191.4</ele>
        <time>2019-10-27T09:34:51Z</time>
      </trkpt>
      <trkpt lat="43.49721" lon="6.24479">
        <ele>191.6</ele>
        <time>2019-10-27T09:35:22Z</time>
      </trkpt>
      <trkpt lat="43.4972" lon="6.24492">
        <ele>191.3</ele>
        <time>2019-10-27T09:35:36Z</time>
      </trkpt>
      <trkpt lat="43.49712" lon="6.245">
        <ele>190.8</ele>
        <time>2019-10-27T09:36:12Z</time>
      </trkpt>
      <trkpt lat="43.49703" lon="6.24494">
        <ele>190.6</ele>
        <time>2019-10-27T09:36:25Z</time>
      </trkpt>
      <trkpt lat="43.49694" lon="6.24493">
        <ele>190.2</ele>
        <time>2019-10-27T09:36:35Z</time>
      </trkpt>
      <trkpt lat="43.49685" lon="6.24491">
        <ele>189.7</ele>
        <time>2019-10-27T09:36:48Z</time>
      </trkpt>
      <trkpt lat="43.49675" lon="6.24492">
        <ele>189.7</ele>
        <time>2019-10-27T09:36:58Z</time>
      </trkpt>
      <trkpt lat="43.49666" lon="6.2449">
        <ele>189.8</ele>
        <time>2019-10-27T09:37:17Z</time>
      </trkpt>
      <trkpt lat="43.49658" lon="6.24496">
        <ele>190.7</ele>
        <time>2019-10-27T09:37:49Z</time>
      </trkpt>
      <trkpt lat="43.49648" lon="6.24497">
        <ele>190.8</ele>
        <time>2019-10-27T09:38:01Z</time>
      </trkpt>
      <trkpt lat="43.49639" lon="6.24497">
        <ele>190</ele>
        <time>2019-10-27T09:38:09Z</time>
      </trkpt>
      <trkpt lat="43.4963" lon="6.24494">
        <ele>188.9</ele>
        <time>2019-10-27T09:38:19Z</time>
      </trkpt>
      <trkpt lat="43.4962" lon="6.24497">
        <ele>188.1</ele>
        <time>2019-10-27T09:38:30Z</time>
      </trkpt>
      <trkpt lat="43.4961" lon="6.24501">
        <ele>187.4</ele>
        <time>2019-10-27T09:38:38Z</time>
      </trkpt>
      <trkpt lat="43.496" lon="6.24504">
        <ele>186.5</ele>
        <time>2019-10-27T09:38:49Z</time>
      </trkpt>
      <trkpt lat="43.49593" lon="6.24512">
        <ele>185</ele>
        <time>2019-10-27T09:38:59Z</time>
      </trkpt>
      <trkpt lat="43.49585" lon="6.2452">
        <ele>183.8</ele>
        <time>2019-10-27T09:39:08Z</time>
      </trkpt>
      <trkpt lat="43.49577" lon="6.24513">
        <ele>182.7</ele>
        <time>2019-10-27T09:39:30Z</time>
      </trkpt>
      <trkpt lat="43.49586" lon="6.24509">
        <ele>181.9</ele>
        <time>2019-10-27T09:40:31Z</time>
      </trkpt>
      <trkpt lat="43.49591" lon="6.24498">
        <ele>180.2</ele>
        <time>2019-10-27T09:40:45Z</time>
      </trkpt>
      <trkpt lat="43.49593" lon="6.24486">
        <ele>178.4</ele>
        <time>2019-10-27T09:41:02Z</time>
      </trkpt>
      <trkpt lat="43.49588" lon="6.24474">
        <ele>177.9</ele>
        <time>2019-10-27T09:41:09Z</time>
      </trkpt>
      <trkpt lat="43.49584" lon="6.24462">
        <ele>177</ele>
        <time>2019-10-27T09:41:21Z</time>
      </trkpt>
      <trkpt lat="43.49578" lon="6.24451">
        <ele>176.8</ele>
        <time>2019-10-27T09:41:29Z</time>
      </trkpt>
      <trkpt lat="43.49572" lon="6.24441">
        <ele>175.8</ele>
        <time>2019-10-27T09:41:39Z</time>
      </trkpt>
      <trkpt lat="43.49566" lon="6.24432">
        <ele>175.7</ele>
        <time>2019-10-27T09:41:49Z</time>
      </trkpt>
      <trkpt lat="43.49557" lon="6.24427">
        <ele>175.5</ele>
        <time>2019-10-27T09:41:58Z</time>
      </trkpt>
      <trkpt lat="43.4955" lon="6.24419">
        <ele>175.8</ele>
        <time>2019-10-27T09:42:06Z</time>
      </trkpt>
      <trkpt lat="43.49542" lon="6.24412">
        <ele>175.1</ele>
        <time>2019-10-27T09:42:17Z</time>
      </trkpt>
      <trkpt lat="43.49537" lon="6.24402">
        <ele>174.8</ele>
        <time>2019-10-27T09:42:36Z</time>
      </trkpt>
      <trkpt lat="43.49532" lon="6.24391">
        <ele>174.7</ele>
        <time>2019-10-27T09:42:48Z</time>
      </trkpt>
      <trkpt lat="43.49523" lon="6.24395">
        <ele>174.1</ele>
        <time>2019-10-27T09:43:04Z</time>
      </trkpt>
      <trkpt lat="43.49514" lon="6.24398">
        <ele>173.3</ele>
        <time>2019-10-27T09:43:18Z</time>
      </trkpt>
      <trkpt lat="43.49505" lon="6.24401">
        <ele>172.9</ele>
        <time>2019-10-27T09:43:35Z</time>
      </trkpt>
      <trkpt lat="43.49496" lon="6.24404">
        <ele>172.7</ele>
        <time>2019-10-27T09:43:53Z</time>
      </trkpt>
      <trkpt lat="43.49487" lon="6.24406">
        <ele>172.1</ele>
        <time>2019-10-27T09:44:15Z</time>
      </trkpt>
      <trkpt lat="43.49478" lon="6.24407">
        <ele>172.1</ele>
        <time>2019-10-27T09:44:26Z</time>
      </trkpt>
      <trkpt lat="43.49475" lon="6.2442">
        <ele>172.7</ele>
        <time>2019-10-27T09:45:06Z</time>
      </trkpt>
      <trkpt lat="43.49469" lon="6.2443">
        <ele>172.4</ele>
        <time>2019-10-27T09:45:17Z</time>
      </trkpt>
      <trkpt lat="43.49462" lon="6.24438">
        <ele>172.8</ele>
        <time>2019-10-27T09:45:30Z</time>
      </trkpt>
      <trkpt lat="43.49455" lon="6.24447">
        <ele>172.4</ele>
        <time>2019-10-27T09:45:40Z</time>
      </trkpt>
      <trkpt lat="43.49451" lon="6.24458">
        <ele>171.6</ele>
        <time>2019-10-27T09:45:51Z</time>
      </trkpt>
      <trkpt lat="43.49443" lon="6.24465">
        <ele>170.6</ele>
        <time>2019-10-27T09:46:00Z</time>
      </trkpt>
      <trkpt lat="43.49434" lon="6.24471">
        <ele>170</ele>
        <time>2019-10-27T09:46:12Z</time>
      </trkpt>
      <trkpt lat="43.49425" lon="6.24468">
        <ele>169.7</ele>
        <time>2019-10-27T09:46:21Z</time>
      </trkpt>
      <trkpt lat="43.49416" lon="6.24464">
        <ele>170</ele>
        <time>2019-10-27T09:46:30Z</time>
      </trkpt>
      <trkpt lat="43.49407" lon="6.24462">
        <ele>170.5</ele>
        <time>2019-10-27T09:46:41Z</time>
      </trkpt>
      <trkpt lat="43.49399" lon="6.2447">
        <ele>171</ele>
        <time>2019-10-27T09:46:58Z</time>
      </trkpt>
      <trkpt lat="43.49391" lon="6.24476">
        <ele>171.2</ele>
        <time>2019-10-27T09:47:06Z</time>
      </trkpt>
      <trkpt lat="43.49381" lon="6.24478">
        <ele>171.2</ele>
        <time>2019-10-27T09:47:14Z</time>
      </trkpt>
      <trkpt lat="43.49373" lon="6.24486">
        <ele>171</ele>
        <time>2019-10-27T09:47:21Z</time>
      </trkpt>
      <trkpt lat="43.49364" lon="6.24492">
        <ele>171.1</ele>
        <time>2019-10-27T09:47:29Z</time>
      </trkpt>
      <trkpt lat="43.49355" lon="6.24498">
        <ele>170.8</ele>
        <time>2019-10-27T09:47:38Z</time>
      </trkpt>
      <trkpt lat="43.49351" lon="6.24509">
        <ele>171</ele>
        <time>2019-10-27T09:48:13Z</time>
      </trkpt>
      <trkpt lat="43.49353" lon="6.24522">
        <ele>170.5</ele>
        <time>2019-10-27T09:48:24Z</time>
      </trkpt>
      <trkpt lat="43.49353" lon="6.24535">
        <ele>170.2</ele>
        <time>2019-10-27T09:48:34Z</time>
      </trkpt>
      <trkpt lat="43.4935" lon="6.24547">
        <ele>170.2</ele>
        <time>2019-10-27T09:48:44Z</time>
      </trkpt>
      <trkpt lat="43.4935" lon="6.2456">
        <ele>169.9</ele>
        <time>2019-10-27T09:48:55Z</time>
      </trkpt>
      <trkpt lat="43.49351" lon="6.24573">
        <ele>169.9</ele>
        <time>2019-10-27T09:49:03Z</time>
      </trkpt>
      <trkpt lat="43.49348" lon="6.24585">
        <ele>169.4</ele>
        <time>2019-10-27T09:49:16Z</time>
      </trkpt>
      <trkpt lat="43.49349" lon="6.24598">
        <ele>169.2</ele>
        <time>2019-10-27T09:49:24Z</time>
      </trkpt>
      <trkpt lat="43.49345" lon="6.2461">
        <ele>169</ele>
        <time>2019-10-27T09:49:34Z</time>
      </trkpt>
      <trkpt lat="43.49341" lon="6.24621">
        <ele>168.9</ele>
        <time>2019-10-27T09:49:44Z</time>
      </trkpt>
      <trkpt lat="43.49339" lon="6.24634">
        <ele>168.8</ele>
        <time>2019-10-27T09:49:54Z</time>
      </trkpt>
      <trkpt lat="43.49336" lon="6.24646">
        <ele>169.2</ele>
        <time>2019-10-27T09:50:03Z</time>
      </trkpt>
      <trkpt lat="43.49334" lon="6.24658">
        <ele>169.7</ele>
        <time>2019-10-27T09:50:12Z</time>
      </trkpt>
      <trkpt lat="43.49331" lon="6.2467">
        <ele>169.4</ele>
        <time>2019-10-27T09:50:22Z</time>
      </trkpt>
      <trkpt lat="43.49326" lon="6.24681">
        <ele>170</ele>
        <time>2019-10-27T09:50:33Z</time>
      </trkpt>
      <trkpt lat="43.49322" lon="6.24693">
        <ele>170.3</ele>
        <time>2019-10-27T09:50:42Z</time>
      </trkpt>
      <trkpt lat="43.49315" lon="6.24703">
        <ele>170.2</ele>
        <time>2019-10-27T09:50:51Z</time>
      </trkpt>
      <trkpt lat="43.49309" lon="6.24714">
        <ele>169.9</ele>
        <time>2019-10-27T09:51:01Z</time>
      </trkpt>
      <trkpt lat="43.49304" lon="6.24724">
        <ele>169</ele>
        <time>2019-10-27T09:51:12Z</time>
      </trkpt>
      <trkpt lat="43.493" lon="6.24737">
        <ele>168.2</ele>
        <time>2019-10-27T09:51:22Z</time>
      </trkpt>
      <trkpt lat="43.49296" lon="6.24748">
        <ele>167.9</ele>
        <time>2019-10-27T09:51:31Z</time>
      </trkpt>
      <trkpt lat="43.49292" lon="6.2476">
        <ele>167.4</ele>
        <time>2019-10-27T09:51:40Z</time>
      </trkpt>
      <trkpt lat="43.49289" lon="6.24772">
        <ele>167.4</ele>
        <time>2019-10-27T09:51:52Z</time>
      </trkpt>
      <trkpt lat="43.49284" lon="6.24783">
        <ele>167.3</ele>
        <time>2019-10-27T09:52:03Z</time>
      </trkpt>
      <trkpt lat="43.49277" lon="6.24793">
        <ele>167.2</ele>
        <time>2019-10-27T09:52:16Z</time>
      </trkpt>
      <trkpt lat="43.4927" lon="6.24801">
        <ele>167.6</ele>
        <time>2019-10-27T09:52:27Z</time>
      </trkpt>
      <trkpt lat="43.49265" lon="6.24812">
        <ele>167.8</ele>
        <time>2019-10-27T09:52:35Z</time>
      </trkpt>
      <trkpt lat="43.4926" lon="6.24823">
        <ele>168.4</ele>
        <time>2019-10-27T09:52:44Z</time>
      </trkpt>
      <trkpt lat="43.49252" lon="6.24831">
        <ele>168.6</ele>
        <time>2019-10-27T09:52:53Z</time>
      </trkpt>
      <trkpt lat="43.49243" lon="6.24835">
        <ele>169.2</ele>
        <time>2019-10-27T09:53:04Z</time>
      </trkpt>
      <trkpt lat="43.49234" lon="6.2484">
        <ele>168.8</ele>
        <time>2019-10-27T09:53:15Z</time>
      </trkpt>
      <trkpt lat="43.49225" lon="6.24844">
        <ele>168.2</ele>
        <time>2019-10-27T09:53:24Z</time>
      </trkpt>
      <trkpt lat="43.49216" lon="6.24847">
        <ele>167.6</ele>
        <time>2019-10-27T09:53:33Z</time>
      </trkpt>
      <trkpt lat="43.49206" lon="6.24847">
        <ele>167.1</ele>
        <time>2019-10-27T09:53:41Z</time>
      </trkpt>
      <trkpt lat="43.49197" lon="6.24847">
        <ele>166.9</ele>
        <time>2019-10-27T09:53:50Z</time>
      </trkpt>
      <trkpt lat="43.49188" lon="6.24846">
        <ele>167.1</ele>
        <time>2019-10-27T09:53:57Z</time>
      </trkpt>
      <trkpt lat="43.49178" lon="6.24848">
        <ele>166.7</ele>
        <time>2019-10-27T09:54:06Z</time>
      </trkpt>
      <trkpt lat="43.49169" lon="6.24847">
        <ele>166.5</ele>
        <time>2019-10-27T09:54:15Z</time>
      </trkpt>
      <trkpt lat="43.4916" lon="6.24845">
        <ele>165.9</ele>
        <time>2019-10-27T09:54:22Z</time>
      </trkpt>
      <trkpt lat="43.49155" lon="6.24858">
        <ele>166</ele>
        <time>2019-10-27T09:54:34Z</time>
      </trkpt>
      <trkpt lat="43.49148" lon="6.24868">
        <ele>166</ele>
        <time>2019-10-27T09:54:41Z</time>
      </trkpt>
      <trkpt lat="43.49141" lon="6.24879">
        <ele>166</ele>
        <time>2019-10-27T09:54:53Z</time>
      </trkpt>
      <trkpt lat="43.49135" lon="6.24889">
        <ele>166.1</ele>
        <time>2019-10-27T09:55:02Z</time>
      </trkpt>
      <trkpt lat="43.49127" lon="6.24896">
        <ele>166.1</ele>
        <time>2019-10-27T09:55:10Z</time>
      </trkpt>
      <trkpt lat="43.49118" lon="6.24901">
        <ele>166.3</ele>
        <time>2019-10-27T09:55:19Z</time>
      </trkpt>
      <trkpt lat="43.49109" lon="6.24901">
        <ele>165.9</ele>
        <time>2019-10-27T09:55:29Z</time>
      </trkpt>
      <trkpt lat="43.491" lon="6.24904">
        <ele>165.4</ele>
        <time>2019-10-27T09:55:38Z</time>
      </trkpt>
      <trkpt lat="43.49091" lon="6.24911">
        <ele>165</ele>
        <time>2019-10-27T09:55:48Z</time>
      </trkpt>
      <trkpt lat="43.49083" lon="6.24919">
        <ele>165</ele>
        <time>2019-10-27T09:55:56Z</time>
      </trkpt>
      <trkpt lat="43.49076" lon="6.24926">
        <ele>165</ele>
        <time>2019-10-27T09:56:02Z</time>
      </trkpt>
      <trkpt lat="43.49065" lon="6.24928">
        <ele>163.9</ele>
        <time>2019-10-27T09:56:16Z</time>
      </trkpt>
      <trkpt lat="43.49056" lon="6.24932">
        <ele>163.3</ele>
        <time>2019-10-27T09:56:26Z</time>
      </trkpt>
      <trkpt lat="43.49048" lon="6.24939">
        <ele>162.5</ele>
        <time>2019-10-27T09:56:37Z</time>
      </trkpt>
      <trkpt lat="43.49039" lon="6.24944">
        <ele>162.1</ele>
        <time>2019-10-27T09:56:45Z</time>
      </trkpt>
      <trkpt lat="43.49031" lon="6.24951">
        <ele>161.4</ele>
        <time>2019-10-27T09:56:55Z</time>
      </trkpt>
      <trkpt lat="43.49023" lon="6.24957">
        <ele>161.2</ele>
        <time>2019-10-27T09:57:03Z</time>
      </trkpt>
      <trkpt lat="43.49016" lon="6.24965">
        <ele>160.9</ele>
        <time>2019-10-27T09:57:11Z</time>
      </trkpt>
      <trkpt lat="43.49007" lon="6.24971">
        <ele>160.7</ele>
        <time>2019-10-27T09:57:21Z</time>
      </trkpt>
      <trkpt lat="43.49002" lon="6.24981">
        <ele>160.4</ele>
        <time>2019-10-27T09:57:27Z</time>
      </trkpt>
      <trkpt lat="43.48994" lon="6.24974">
        <ele>159.4</ele>
        <time>2019-10-27T09:57:39Z</time>
      </trkpt>
      <trkpt lat="43.48987" lon="6.24965">
        <ele>159</ele>
        <time>2019-10-27T09:57:49Z</time>
      </trkpt>
      <trkpt lat="43.48983" lon="6.24954">
        <ele>158.8</ele>
        <time>2019-10-27T09:57:56Z</time>
      </trkpt>
      <trkpt lat="43.48975" lon="6.24948">
        <ele>158.2</ele>
        <time>2019-10-27T09:58:06Z</time>
      </trkpt>
      <trkpt lat="43.48967" lon="6.24941">
        <ele>158.1</ele>
        <time>2019-10-27T09:58:13Z</time>
      </trkpt>
      <trkpt lat="43.48957" lon="6.24939">
        <ele>157.8</ele>
        <time>2019-10-27T09:58:23Z</time>
      </trkpt>
      <trkpt lat="43.48949" lon="6.24934">
        <ele>157.4</ele>
        <time>2019-10-27T09:58:34Z</time>
      </trkpt>
      <trkpt lat="43.48939" lon="6.24938">
        <ele>157.2</ele>
        <time>2019-10-27T09:58:43Z</time>
      </trkpt>
      <trkpt lat="43.4893" lon="6.24943">
        <ele>156.9</ele>
        <time>2019-10-27T09:58:51Z</time>
      </trkpt>
      <trkpt lat="43.4892" lon="6.24945">
        <ele>156.5</ele>
        <time>2019-10-27T09:58:59Z</time>
      </trkpt>
      <trkpt lat="43.48911" lon="6.24946">
        <ele>156.6</ele>
        <time>2019-10-27T09:59:07Z</time>
      </trkpt>
      <trkpt lat="43.48901" lon="6.24947">
        <ele>156.4</ele>
        <time>2019-10-27T09:59:19Z</time>
      </trkpt>
      <trkpt lat="43.48892" lon="6.2495">
        <ele>155.8</ele>
        <time>2019-10-27T09:59:30Z</time>
      </trkpt>
      <trkpt lat="43.48882" lon="6.24954">
        <ele>155.3</ele>
        <time>2019-10-27T09:59:39Z</time>
      </trkpt>
      <trkpt lat="43.48873" lon="6.24959">
        <ele>155.8</ele>
        <time>2019-10-27T09:59:49Z</time>
      </trkpt>
      <trkpt lat="43.48866" lon="6.24967">
        <ele>156.1</ele>
        <time>2019-10-27T09:59:55Z</time>
      </trkpt>
      <trkpt lat="43.48857" lon="6.24971">
        <ele>156.6</ele>
        <time>2019-10-27T10:00:08Z</time>
      </trkpt>
      <trkpt lat="43.48848" lon="6.24977">
        <ele>157.3</ele>
        <time>2019-10-27T10:00:19Z</time>
      </trkpt>
      <trkpt lat="43.4884" lon="6.24986">
        <ele>157.7</ele>
        <time>2019-10-27T10:00:27Z</time>
      </trkpt>
      <trkpt lat="43.48832" lon="6.24993">
        <ele>158</ele>
        <time>2019-10-27T10:00:36Z</time>
      </trkpt>
      <trkpt lat="43.48827" lon="6.25003">
        <ele>158.1</ele>
        <time>2019-10-27T10:00:42Z</time>
      </trkpt>
      <trkpt lat="43.48817" lon="6.25006">
        <ele>158.3</ele>
        <time>2019-10-27T10:00:53Z</time>
      </trkpt>
      <trkpt lat="43.48807" lon="6.25008">
        <ele>158.1</ele>
        <time>2019-10-27T10:01:01Z</time>
      </trkpt>
      <trkpt lat="43.48799" lon="6.25012">
        <ele>158.1</ele>
        <time>2019-10-27T10:01:10Z</time>
      </trkpt>
      <trkpt lat="43.48789" lon="6.25013">
        <ele>157.4</ele>
        <time>2019-10-27T10:01:22Z</time>
      </trkpt>
      <trkpt lat="43.4878" lon="6.25007">
        <ele>156.6</ele>
        <time>2019-10-27T10:01:30Z</time>
      </trkpt>
      <trkpt lat="43.48772" lon="6.24999">
        <ele>155.6</ele>
        <time>2019-10-27T10:01:41Z</time>
      </trkpt>
      <trkpt lat="43.48767" lon="6.24987">
        <ele>154.5</ele>
        <time>2019-10-27T10:01:52Z</time>
      </trkpt>
      <trkpt lat="43.48762" lon="6.24975">
        <ele>153.8</ele>
        <time>2019-10-27T10:02:00Z</time>
      </trkpt>
      <trkpt lat="43.48756" lon="6.24965">
        <ele>153.3</ele>
        <time>2019-10-27T10:02:09Z</time>
      </trkpt>
      <trkpt lat="43.48749" lon="6.24956">
        <ele>152.8</ele>
        <time>2019-10-27T10:02:19Z</time>
      </trkpt>
      <trkpt lat="43.48744" lon="6.24945">
        <ele>152.7</ele>
        <time>2019-10-27T10:02:29Z</time>
      </trkpt>
      <trkpt lat="43.48738" lon="6.24935">
        <ele>152.6</ele>
        <time>2019-10-27T10:02:38Z</time>
      </trkpt>
      <trkpt lat="43.48733" lon="6.24924">
        <ele>152.3</ele>
        <time>2019-10-27T10:02:48Z</time>
      </trkpt>
      <trkpt lat="43.48727" lon="6.24914">
        <ele>151.6</ele>
        <time>2019-10-27T10:02:57Z</time>
      </trkpt>
      <trkpt lat="43.4872" lon="6.24904">
        <ele>150.2</ele>
        <time>2019-10-27T10:03:10Z</time>
      </trkpt>
      <trkpt lat="43.48713" lon="6.24898">
        <ele>148.9</ele>
        <time>2019-10-27T10:03:21Z</time>
      </trkpt>
      <trkpt lat="43.48705" lon="6.24892">
        <ele>148.1</ele>
        <time>2019-10-27T10:03:28Z</time>
      </trkpt>
      <trkpt lat="43.48698" lon="6.24883">
        <ele>146.5</ele>
        <time>2019-10-27T10:03:40Z</time>
      </trkpt>
      <trkpt lat="43.48694" lon="6.24872">
        <ele>145.8</ele>
        <time>2019-10-27T10:03:48Z</time>
      </trkpt>
      <trkpt lat="43.48687" lon="6.24862">
        <ele>145.6</ele>
        <time>2019-10-27T10:03:56Z</time>
      </trkpt>
      <trkpt lat="43.48682" lon="6.2485">
        <ele>145.4</ele>
        <time>2019-10-27T10:04:04Z</time>
      </trkpt>
      <trkpt lat="43.48675" lon="6.2484">
        <ele>144.9</ele>
        <time>2019-10-27T10:04:13Z</time>
      </trkpt>
      <trkpt lat="43.48669" lon="6.24831">
        <ele>144.7</ele>
        <time>2019-10-27T10:04:20Z</time>
      </trkpt>
      <trkpt lat="43.48662" lon="6.24821">
        <ele>143.9</ele>
        <time>2019-10-27T10:04:41Z</time>
      </trkpt>
      <trkpt lat="43.4866" lon="6.24809">
        <ele>144.1</ele>
        <time>2019-10-27T10:04:56Z</time>
      </trkpt>
      <trkpt lat="43.48659" lon="6.24796">
        <ele>144.2</ele>
        <time>2019-10-27T10:05:06Z</time>
      </trkpt>
      <trkpt lat="43.48658" lon="6.24783">
        <ele>144.5</ele>
        <time>2019-10-27T10:05:17Z</time>
      </trkpt>
      <trkpt lat="43.48656" lon="6.2477">
        <ele>144.3</ele>
        <time>2019-10-27T10:05:27Z</time>
      </trkpt>
      <trkpt lat="43.48654" lon="6.24756">
        <ele>144.4</ele>
        <time>2019-10-27T10:05:38Z</time>
      </trkpt>
      <trkpt lat="43.48653" lon="6.24744">
        <ele>144.3</ele>
        <time>2019-10-27T10:05:46Z</time>
      </trkpt>
      <trkpt lat="43.48651" lon="6.24731">
        <ele>144.4</ele>
        <time>2019-10-27T10:05:55Z</time>
      </trkpt>
      <trkpt lat="43.48651" lon="6.24718">
        <ele>144.3</ele>
        <time>2019-10-27T10:06:06Z</time>
      </trkpt>
      <trkpt lat="43.4865" lon="6.24704">
        <ele>144.4</ele>
        <time>2019-10-27T10:06:14Z</time>
      </trkpt>
      <trkpt lat="43.4865" lon="6.24691">
        <ele>144.4</ele>
        <time>2019-10-27T10:06:23Z</time>
      </trkpt>
      <trkpt lat="43.48644" lon="6.24681">
        <ele>144.1</ele>
        <time>2019-10-27T10:07:15Z</time>
      </trkpt>
      <trkpt lat="43.48643" lon="6.24667">
        <ele>143.7</ele>
        <time>2019-10-27T10:07:41Z</time>
      </trkpt>
      <trkpt lat="43.48644" lon="6.24654">
        <ele>144</ele>
        <time>2019-10-27T10:07:49Z</time>
      </trkpt>
      <trkpt lat="43.48646" lon="6.24641">
        <ele>143.8</ele>
        <time>2019-10-27T10:07:58Z</time>
      </trkpt>
      <trkpt lat="43.48644" lon="6.24628">
        <ele>143.6</ele>
        <time>2019-10-27T10:08:07Z</time>
      </trkpt>
      <trkpt lat="43.48646" lon="6.24616">
        <ele>143.4</ele>
        <time>2019-10-27T10:08:16Z</time>
      </trkpt>
      <trkpt lat="43.48646" lon="6.24602">
        <ele>143.5</ele>
        <time>2019-10-27T10:08:26Z</time>
      </trkpt>
      <trkpt lat="43.48648" lon="6.2459">
        <ele>143.5</ele>
        <time>2019-10-27T10:08:35Z</time>
      </trkpt>
      <trkpt lat="43.48649" lon="6.24577">
        <ele>143.4</ele>
        <time>2019-10-27T10:08:44Z</time>
      </trkpt>
      <trkpt lat="43.4865" lon="6.24564">
        <ele>143.1</ele>
        <time>2019-10-27T10:08:52Z</time>
      </trkpt>
      <trkpt lat="43.4865" lon="6.2455">
        <ele>143</ele>
        <time>2019-10-27T10:09:01Z</time>
      </trkpt>
      <trkpt lat="43.4865" lon="6.24537">
        <ele>142.6</ele>
        <time>2019-10-27T10:09:10Z</time>
      </trkpt>
      <trkpt lat="43.48656" lon="6.24526">
        <ele>142.4</ele>
        <time>2019-10-27T10:09:20Z</time>
      </trkpt>
      <trkpt lat="43.48647" lon="6.24527">
        <ele>141</ele>
        <time>2019-10-27T10:09:44Z</time>
      </trkpt>
      <trkpt lat="43.48649" lon="6.24515">
        <ele>141</ele>
        <time>2019-10-27T10:11:00Z</time>
      </trkpt>
      <trkpt lat="43.48641" lon="6.24507">
        <ele>140.7</ele>
        <time>2019-10-27T10:11:26Z</time>
      </trkpt>
      <trkpt lat="43.4865" lon="6.2451">
        <ele>140.2</ele>
        <time>2019-10-27T10:12:16Z</time>
      </trkpt>
      <trkpt lat="43.48653" lon="6.24498">
        <ele>139.9</ele>
        <time>2019-10-27T10:12:27Z</time>
      </trkpt>
      <trkpt lat="43.48654" lon="6.24484">
        <ele>139.7</ele>
        <time>2019-10-27T10:12:37Z</time>
      </trkpt>
      <trkpt lat="43.48656" lon="6.24472">
        <ele>139.6</ele>
        <time>2019-10-27T10:12:48Z</time>
      </trkpt>
      <trkpt lat="43.48657" lon="6.24458">
        <ele>139.6</ele>
        <time>2019-10-27T10:12:59Z</time>
      </trkpt>
      <trkpt lat="43.48658" lon="6.24445">
        <ele>139.7</ele>
        <time>2019-10-27T10:13:09Z</time>
      </trkpt>
      <trkpt lat="43.48657" lon="6.24432">
        <ele>139.6</ele>
        <time>2019-10-27T10:13:19Z</time>
      </trkpt>
      <trkpt lat="43.48657" lon="6.24419">
        <ele>138.6</ele>
        <time>2019-10-27T10:13:42Z</time>
      </trkpt>
      <trkpt lat="43.48658" lon="6.24405">
        <ele>138.4</ele>
        <time>2019-10-27T10:13:50Z</time>
      </trkpt>
      <trkpt lat="43.48659" lon="6.24392">
        <ele>138</ele>
        <time>2019-10-27T10:13:58Z</time>
      </trkpt>
      <trkpt lat="43.4866" lon="6.24379">
        <ele>137.7</ele>
        <time>2019-10-27T10:14:07Z</time>
      </trkpt>
      <trkpt lat="43.48662" lon="6.24366">
        <ele>137.6</ele>
        <time>2019-10-27T10:14:16Z</time>
      </trkpt>
      <trkpt lat="43.48664" lon="6.24352">
        <ele>137.2</ele>
        <time>2019-10-27T10:14:25Z</time>
      </trkpt>
      <trkpt lat="43.48665" lon="6.2434">
        <ele>136.6</ele>
        <time>2019-10-27T10:14:32Z</time>
      </trkpt>
      <trkpt lat="43.48667" lon="6.24327">
        <ele>136</ele>
        <time>2019-10-27T10:14:40Z</time>
      </trkpt>
      <trkpt lat="43.48666" lon="6.24313">
        <ele>135.7</ele>
        <time>2019-10-27T10:14:49Z</time>
      </trkpt>
      <trkpt lat="43.4866" lon="6.24303">
        <ele>135.2</ele>
        <time>2019-10-27T10:14:59Z</time>
      </trkpt>
      <trkpt lat="43.48654" lon="6.24294">
        <ele>135</ele>
        <time>2019-10-27T10:15:10Z</time>
      </trkpt>
      <trkpt lat="43.48645" lon="6.24288">
        <ele>134.6</ele>
        <time>2019-10-27T10:15:18Z</time>
      </trkpt>
      <trkpt lat="43.48635" lon="6.24282">
        <ele>134.2</ele>
        <time>2019-10-27T10:15:29Z</time>
      </trkpt>
      <trkpt lat="43.48627" lon="6.24278">
        <ele>133.7</ele>
        <time>2019-10-27T10:15:37Z</time>
      </trkpt>
      <trkpt lat="43.48618" lon="6.24271">
        <ele>132.7</ele>
        <time>2019-10-27T10:15:45Z</time>
      </trkpt>
      <trkpt lat="43.48611" lon="6.24263">
        <ele>132.2</ele>
        <time>2019-10-27T10:15:53Z</time>
      </trkpt>
      <trkpt lat="43.48603" lon="6.24255">
        <ele>131.5</ele>
        <time>2019-10-27T10:16:01Z</time>
      </trkpt>
      <trkpt lat="43.48595" lon="6.2425">
        <ele>130.6</ele>
        <time>2019-10-27T10:16:10Z</time>
      </trkpt>
      <trkpt lat="43.48586" lon="6.24245">
        <ele>129.6</ele>
        <time>2019-10-27T10:16:19Z</time>
      </trkpt>
      <trkpt lat="43.48578" lon="6.24238">
        <ele>128.9</ele>
        <time>2019-10-27T10:16:30Z</time>
      </trkpt>
      <trkpt lat="43.48571" lon="6.24229">
        <ele>128.4</ele>
        <time>2019-10-27T10:16:40Z</time>
      </trkpt>
      <trkpt lat="43.48565" lon="6.24218">
        <ele>128.1</ele>
        <time>2019-10-27T10:16:47Z</time>
      </trkpt>
      <trkpt lat="43.48561" lon="6.24207">
        <ele>128.1</ele>
        <time>2019-10-27T10:16:55Z</time>
      </trkpt>
      <trkpt lat="43.48557" lon="6.24195">
        <ele>128.1</ele>
        <time>2019-10-27T10:17:03Z</time>
      </trkpt>
      <trkpt lat="43.48554" lon="6.24184">
        <ele>127.8</ele>
        <time>2019-10-27T10:17:12Z</time>
      </trkpt>
      <trkpt lat="43.4855" lon="6.24172">
        <ele>127.9</ele>
        <time>2019-10-27T10:17:20Z</time>
      </trkpt>
      <trkpt lat="43.48545" lon="6.2416">
        <ele>127.6</ele>
        <time>2019-10-27T10:17:31Z</time>
      </trkpt>
      <trkpt lat="43.48544" lon="6.24148">
        <ele>127.4</ele>
        <time>2019-10-27T10:17:40Z</time>
      </trkpt>
      <trkpt lat="43.48544" lon="6.24134">
        <ele>127.3</ele>
        <time>2019-10-27T10:17:49Z</time>
      </trkpt>
      <trkpt lat="43.4854" lon="6.24123">
        <ele>126.9</ele>
        <time>2019-10-27T10:17:58Z</time>
      </trkpt>
      <trkpt lat="43.48535" lon="6.24113">
        <ele>127</ele>
        <time>2019-10-27T10:18:06Z</time>
      </trkpt>
      <trkpt lat="43.48534" lon="6.241">
        <ele>127.4</ele>
        <time>2019-10-27T10:18:16Z</time>
      </trkpt>
      <trkpt lat="43.48531" lon="6.24088">
        <ele>127.7</ele>
        <time>2019-10-27T10:18:27Z</time>
      </trkpt>
      <trkpt lat="43.48526" lon="6.24077">
        <ele>128.4</ele>
        <time>2019-10-27T10:18:35Z</time>
      </trkpt>
      <trkpt lat="43.48521" lon="6.24065">
        <ele>128.6</ele>
        <time>2019-10-27T10:18:43Z</time>
      </trkpt>
      <trkpt lat="43.48515" lon="6.24055">
        <ele>128.8</ele>
        <time>2019-10-27T10:18:51Z</time>
      </trkpt>
      <trkpt lat="43.48509" lon="6.24046">
        <ele>128.9</ele>
        <time>2019-10-27T10:19:00Z</time>
      </trkpt>
      <trkpt lat="43.48503" lon="6.24035">
        <ele>129</ele>
        <time>2019-10-27T10:19:11Z</time>
      </trkpt>
      <trkpt lat="43.485" lon="6.24023">
        <ele>128.8</ele>
        <time>2019-10-27T10:19:18Z</time>
      </trkpt>
      <trkpt lat="43.48496" lon="6.24011">
        <ele>128.5</ele>
        <time>2019-10-27T10:19:25Z</time>
      </trkpt>
      <trkpt lat="43.48493" lon="6.23999">
        <ele>128.4</ele>
        <time>2019-10-27T10:19:35Z</time>
      </trkpt>
      <trkpt lat="43.4849" lon="6.23986">
        <ele>128.1</ele>
        <time>2019-10-27T10:19:44Z</time>
      </trkpt>
      <trkpt lat="43.48488" lon="6.23974">
        <ele>127.9</ele>
        <time>2019-10-27T10:19:53Z</time>
      </trkpt>
      <trkpt lat="43.48485" lon="6.23961">
        <ele>127.7</ele>
        <time>2019-10-27T10:20:01Z</time>
      </trkpt>
      <trkpt lat="43.48478" lon="6.23952">
        <ele>127.9</ele>
        <time>2019-10-27T10:20:11Z</time>
      </trkpt>
      <trkpt lat="43.48471" lon="6.23943">
        <ele>127.9</ele>
        <time>2019-10-27T10:20:20Z</time>
      </trkpt>
      <trkpt lat="43.48465" lon="6.23932">
        <ele>127.7</ele>
        <time>2019-10-27T10:20:29Z</time>
      </trkpt>
      <trkpt lat="43.48458" lon="6.23922">
        <ele>127.4</ele>
        <time>2019-10-27T10:20:36Z</time>
      </trkpt>
      <trkpt lat="43.48455" lon="6.2391">
        <ele>126.8</ele>
        <time>2019-10-27T10:20:46Z</time>
      </trkpt>
      <trkpt lat="43.48451" lon="6.23897">
        <ele>126.9</ele>
        <time>2019-10-27T10:20:55Z</time>
      </trkpt>
      <trkpt lat="43.48447" lon="6.23884">
        <ele>126.6</ele>
        <time>2019-10-27T10:21:04Z</time>
      </trkpt>
      <trkpt lat="43.48446" lon="6.23871">
        <ele>125.9</ele>
        <time>2019-10-27T10:21:14Z</time>
      </trkpt>
      <trkpt lat="43.48443" lon="6.23857">
        <ele>124.9</ele>
        <time>2019-10-27T10:21:25Z</time>
      </trkpt>
      <trkpt lat="43.48442" lon="6.23843">
        <ele>123.8</ele>
        <time>2019-10-27T10:21:38Z</time>
      </trkpt>
      <trkpt lat="43.48438" lon="6.23832">
        <ele>123.4</ele>
        <time>2019-10-27T10:21:45Z</time>
      </trkpt>
      <trkpt lat="43.48438" lon="6.23819">
        <ele>122.8</ele>
        <time>2019-10-27T10:21:56Z</time>
      </trkpt>
      <trkpt lat="43.48437" lon="6.23805">
        <ele>122.8</ele>
        <time>2019-10-27T10:22:02Z</time>
      </trkpt>
      <trkpt lat="43.48436" lon="6.23791">
        <ele>122.8</ele>
        <time>2019-10-27T10:22:10Z</time>
      </trkpt>
      <trkpt lat="43.48439" lon="6.23778">
        <ele>122.6</ele>
        <time>2019-10-27T10:22:17Z</time>
      </trkpt>
      <trkpt lat="43.48437" lon="6.23765">
        <ele>122.7</ele>
        <time>2019-10-27T10:22:26Z</time>
      </trkpt>
      <trkpt lat="43.48433" lon="6.23754">
        <ele>122.7</ele>
        <time>2019-10-27T10:22:33Z</time>
      </trkpt>
      <trkpt lat="43.4843" lon="6.23742">
        <ele>122.7</ele>
        <time>2019-10-27T10:22:44Z</time>
      </trkpt>
      <trkpt lat="43.48427" lon="6.2373">
        <ele>122.5</ele>
        <time>2019-10-27T10:22:55Z</time>
      </trkpt>
      <trkpt lat="43.48425" lon="6.23718">
        <ele>122.5</ele>
        <time>2019-10-27T10:23:05Z</time>
      </trkpt>
      <trkpt lat="43.48422" lon="6.23705">
        <ele>122.7</ele>
        <time>2019-10-27T10:23:14Z</time>
      </trkpt>
      <trkpt lat="43.48422" lon="6.23692">
        <ele>122.9</ele>
        <time>2019-10-27T10:23:24Z</time>
      </trkpt>
      <trkpt lat="43.48421" lon="6.23679">
        <ele>123</ele>
        <time>2019-10-27T10:23:33Z</time>
      </trkpt>
      <trkpt lat="43.48416" lon="6.23667">
        <ele>123.1</ele>
        <time>2019-10-27T10:23:42Z</time>
      </trkpt>
      <trkpt lat="43.4841" lon="6.23657">
        <ele>123.7</ele>
        <time>2019-10-27T10:23:52Z</time>
      </trkpt>
      <trkpt lat="43.48403" lon="6.23649">
        <ele>123.4</ele>
        <time>2019-10-27T10:24:01Z</time>
      </trkpt>
      <trkpt lat="43.48394" lon="6.23646">
        <ele>123.1</ele>
        <time>2019-10-27T10:24:10Z</time>
      </trkpt>
      <trkpt lat="43.48385" lon="6.23649">
        <ele>122.5</ele>
        <time>2019-10-27T10:24:20Z</time>
      </trkpt>
      <trkpt lat="43.48375" lon="6.23652">
        <ele>122.3</ele>
        <time>2019-10-27T10:24:27Z</time>
      </trkpt>
      <trkpt lat="43.48366" lon="6.23649">
        <ele>121.4</ele>
        <time>2019-10-27T10:24:35Z</time>
      </trkpt>
      <trkpt lat="43.48358" lon="6.23641">
        <ele>120.1</ele>
        <time>2019-10-27T10:24:46Z</time>
      </trkpt>
      <trkpt lat="43.48353" lon="6.2363">
        <ele>119.8</ele>
        <time>2019-10-27T10:24:53Z</time>
      </trkpt>
      <trkpt lat="43.48351" lon="6.23618">
        <ele>119.8</ele>
        <time>2019-10-27T10:25:03Z</time>
      </trkpt>
      <trkpt lat="43.4835" lon="6.23605">
        <ele>119.6</ele>
        <time>2019-10-27T10:25:13Z</time>
      </trkpt>
      <trkpt lat="43.48352" lon="6.23593">
        <ele>119.6</ele>
        <time>2019-10-27T10:27:06Z</time>
      </trkpt>
      <trkpt lat="43.48354" lon="6.23581">
        <ele>119.4</ele>
        <time>2019-10-27T10:27:15Z</time>
      </trkpt>
      <trkpt lat="43.48357" lon="6.23569">
        <ele>119.4</ele>
        <time>2019-10-27T10:27:24Z</time>
      </trkpt>
      <trkpt lat="43.48362" lon="6.23558">
        <ele>119.4</ele>
        <time>2019-10-27T10:27:34Z</time>
      </trkpt>
      <trkpt lat="43.48366" lon="6.23546">
        <ele>119.2</ele>
        <time>2019-10-27T10:27:41Z</time>
      </trkpt>
      <trkpt lat="43.48371" lon="6.23535">
        <ele>118.8</ele>
        <time>2019-10-27T10:27:49Z</time>
      </trkpt>
      <trkpt lat="43.48371" lon="6.23523">
        <ele>118.6</ele>
        <time>2019-10-27T10:27:56Z</time>
      </trkpt>
      <trkpt lat="43.48376" lon="6.23512">
        <ele>118.5</ele>
        <time>2019-10-27T10:28:04Z</time>
      </trkpt>
      <trkpt lat="43.48377" lon="6.23499">
        <ele>118.5</ele>
        <time>2019-10-27T10:28:13Z</time>
      </trkpt>
      <trkpt lat="43.48374" lon="6.23487">
        <ele>118.5</ele>
        <time>2019-10-27T10:28:42Z</time>
      </trkpt>
      <trkpt lat="43.48365" lon="6.2348">
        <ele>118.9</ele>
        <time>2019-10-27T10:28:49Z</time>
      </trkpt>
      <trkpt lat="43.48356" lon="6.23475">
        <ele>118.6</ele>
        <time>2019-10-27T10:28:58Z</time>
      </trkpt>
      <trkpt lat="43.4835" lon="6.23464">
        <ele>118.4</ele>
        <time>2019-10-27T10:29:22Z</time>
      </trkpt>
      <trkpt lat="43.4834" lon="6.23457">
        <ele>118.4</ele>
        <time>2019-10-27T10:29:30Z</time>
      </trkpt>
      <trkpt lat="43.48333" lon="6.23449">
        <ele>118.4</ele>
        <time>2019-10-27T10:29:38Z</time>
      </trkpt>
      <trkpt lat="43.4833" lon="6.23436">
        <ele>119.2</ele>
        <time>2019-10-27T10:29:52Z</time>
      </trkpt>
      <trkpt lat="43.48333" lon="6.23423">
        <ele>119.1</ele>
        <time>2019-10-27T10:30:06Z</time>
      </trkpt>
      <trkpt lat="43.48335" lon="6.23411">
        <ele>118.9</ele>
        <time>2019-10-27T10:30:18Z</time>
      </trkpt>
      <trkpt lat="43.48337" lon="6.23398">
        <ele>118.9</ele>
        <time>2019-10-27T10:30:27Z</time>
      </trkpt>
      <trkpt lat="43.4834" lon="6.23385">
        <ele>119</ele>
        <time>2019-10-27T10:30:36Z</time>
      </trkpt>
      <trkpt lat="43.48342" lon="6.23372">
        <ele>119.1</ele>
        <time>2019-10-27T10:30:44Z</time>
      </trkpt>
      <trkpt lat="43.48343" lon="6.23359">
        <ele>119.2</ele>
        <time>2019-10-27T10:30:53Z</time>
      </trkpt>
      <trkpt lat="43.48338" lon="6.23347">
        <ele>119.5</ele>
        <time>2019-10-27T10:31:01Z</time>
      </trkpt>
      <trkpt lat="43.48336" lon="6.23333">
        <ele>119.9</ele>
        <time>2019-10-27T10:31:10Z</time>
      </trkpt>
      <trkpt lat="43.48336" lon="6.2332">
        <ele>119.9</ele>
        <time>2019-10-27T10:31:18Z</time>
      </trkpt>
      <trkpt lat="43.48329" lon="6.23311">
        <ele>119.3</ele>
        <time>2019-10-27T10:31:26Z</time>
      </trkpt>
      <trkpt lat="43.4832" lon="6.23306">
        <ele>118.7</ele>
        <time>2019-10-27T10:31:38Z</time>
      </trkpt>
      <trkpt lat="43.48311" lon="6.23301">
        <ele>118.4</ele>
        <time>2019-10-27T10:35:02Z</time>
      </trkpt>
      <trkpt lat="43.48302" lon="6.23296">
        <ele>117.8</ele>
        <time>2019-10-27T10:35:13Z</time>
      </trkpt>
      <trkpt lat="43.48292" lon="6.23295">
        <ele>117.4</ele>
        <time>2019-10-27T10:35:24Z</time>
      </trkpt>
      <trkpt lat="43.48283" lon="6.23293">
        <ele>116.6</ele>
        <time>2019-10-27T10:35:32Z</time>
      </trkpt>
      <trkpt lat="43.48275" lon="6.23299">
        <ele>114.9</ele>
        <time>2019-10-27T10:35:46Z</time>
      </trkpt>
      <trkpt lat="43.48266" lon="6.23301">
        <ele>114.4</ele>
        <time>2019-10-27T10:35:56Z</time>
      </trkpt>
      <trkpt lat="43.48258" lon="6.23296">
        <ele>113.5</ele>
        <time>2019-10-27T10:36:08Z</time>
      </trkpt>
      <trkpt lat="43.48248" lon="6.23296">
        <ele>112.5</ele>
        <time>2019-10-27T10:36:17Z</time>
      </trkpt>
      <trkpt lat="43.4824" lon="6.23301">
        <ele>111.4</ele>
        <time>2019-10-27T10:36:45Z</time>
      </trkpt>
      <trkpt lat="43.48231" lon="6.23307">
        <ele>110.7</ele>
        <time>2019-10-27T10:36:53Z</time>
      </trkpt>
      <trkpt lat="43.48222" lon="6.23312">
        <ele>110.2</ele>
        <time>2019-10-27T10:37:01Z</time>
      </trkpt>
      <trkpt lat="43.48217" lon="6.23323">
        <ele>110</ele>
        <time>2019-10-27T10:37:22Z</time>
      </trkpt>
      <trkpt lat="43.48208" lon="6.2333">
        <ele>110.1</ele>
        <time>2019-10-27T10:37:30Z</time>
      </trkpt>
      <trkpt lat="43.482" lon="6.23338">
        <ele>110.2</ele>
        <time>2019-10-27T10:37:39Z</time>
      </trkpt>
      <trkpt lat="43.48193" lon="6.23346">
        <ele>110.2</ele>
        <time>2019-10-27T10:37:46Z</time>
      </trkpt>
      <trkpt lat="43.48186" lon="6.23355">
        <ele>110.9</ele>
        <time>2019-10-27T10:37:57Z</time>
      </trkpt>
      <trkpt lat="43.48181" lon="6.23365">
        <ele>111.8</ele>
        <time>2019-10-27T10:38:05Z</time>
      </trkpt>
      <trkpt lat="43.48174" lon="6.23374">
        <ele>111.9</ele>
        <time>2019-10-27T10:38:29Z</time>
      </trkpt>
      <trkpt lat="43.48178" lon="6.23387">
        <ele>112.6</ele>
        <time>2019-10-27T10:38:44Z</time>
      </trkpt>
      <trkpt lat="43.48169" lon="6.23379">
        <ele>111.9</ele>
        <time>2019-10-27T10:39:04Z</time>
      </trkpt>
      <trkpt lat="43.48174" lon="6.23391">
        <ele>111.9</ele>
        <time>2019-10-27T10:40:12Z</time>
      </trkpt>
      <trkpt lat="43.48181" lon="6.23399">
        <ele>112.1</ele>
        <time>2019-10-27T10:40:23Z</time>
      </trkpt>
      <trkpt lat="43.48179" lon="6.23386">
        <ele>112.4</ele>
        <time>2019-10-27T10:40:58Z</time>
      </trkpt>
      <trkpt lat="43.48174" lon="6.23375">
        <ele>112.5</ele>
        <time>2019-10-27T10:41:37Z</time>
      </trkpt>
      <trkpt lat="43.48183" lon="6.2337">
        <ele>112.4</ele>
        <time>2019-10-27T10:41:56Z</time>
      </trkpt>
      <trkpt lat="43.48192" lon="6.23372">
        <ele>112.5</ele>
        <time>2019-10-27T10:42:33Z</time>
      </trkpt>
      <trkpt lat="43.48197" lon="6.2336">
        <ele>112.4</ele>
        <time>2019-10-27T10:42:42Z</time>
      </trkpt>
      <trkpt lat="43.48204" lon="6.23351">
        <ele>111.9</ele>
        <time>2019-10-27T10:42:50Z</time>
      </trkpt>
      <trkpt lat="43.48212" lon="6.23345">
        <ele>111.3</ele>
        <time>2019-10-27T10:43:00Z</time>
      </trkpt>
      <trkpt lat="43.48219" lon="6.23337">
        <ele>111.3</ele>
        <time>2019-10-27T10:43:09Z</time>
      </trkpt>
      <trkpt lat="43.48227" lon="6.23329">
        <ele>111.3</ele>
        <time>2019-10-27T10:43:19Z</time>
      </trkpt>
      <trkpt lat="43.48235" lon="6.23321">
        <ele>111.2</ele>
        <time>2019-10-27T10:43:27Z</time>
      </trkpt>
      <trkpt lat="43.48243" lon="6.23316">
        <ele>111.5</ele>
        <time>2019-10-27T10:43:35Z</time>
      </trkpt>
      <trkpt lat="43.48253" lon="6.23318">
        <ele>112.6</ele>
        <time>2019-10-27T10:43:47Z</time>
      </trkpt>
      <trkpt lat="43.48262" lon="6.23315">
        <ele>113.6</ele>
        <time>2019-10-27T10:43:54Z</time>
      </trkpt>
      <trkpt lat="43.48273" lon="6.23313">
        <ele>114.1</ele>
        <time>2019-10-27T10:44:00Z</time>
      </trkpt>
      <trkpt lat="43.4828" lon="6.23306">
        <ele>114.8</ele>
        <time>2019-10-27T10:44:10Z</time>
      </trkpt>
      <trkpt lat="43.48289" lon="6.23306">
        <ele>115.6</ele>
        <time>2019-10-27T10:44:19Z</time>
      </trkpt>
      <trkpt lat="43.48299" lon="6.2331">
        <ele>116.8</ele>
        <time>2019-10-27T10:44:29Z</time>
      </trkpt>
      <trkpt lat="43.48308" lon="6.23313">
        <ele>118.3</ele>
        <time>2019-10-27T10:44:37Z</time>
      </trkpt>
      <trkpt lat="43.48315" lon="6.23304">
        <ele>119.3</ele>
        <time>2019-10-27T10:44:45Z</time>
      </trkpt>
      <trkpt lat="43.48318" lon="6.23291">
        <ele>119.5</ele>
        <time>2019-10-27T10:44:52Z</time>
      </trkpt>
      <trkpt lat="43.48322" lon="6.2328">
        <ele>120.1</ele>
        <time>2019-10-27T10:45:02Z</time>
      </trkpt>
      <trkpt lat="43.48331" lon="6.23279">
        <ele>120.4</ele>
        <time>2019-10-27T10:45:45Z</time>
      </trkpt>
      <trkpt lat="43.48331" lon="6.23266">
        <ele>120.4</ele>
        <time>2019-10-27T10:46:07Z</time>
      </trkpt>
      <trkpt lat="43.48339" lon="6.23262">
        <ele>120.3</ele>
        <time>2019-10-27T10:46:18Z</time>
      </trkpt>
      <trkpt lat="43.48348" lon="6.23262">
        <ele>120.3</ele>
        <time>2019-10-27T10:46:28Z</time>
      </trkpt>
      <trkpt lat="43.48355" lon="6.23254">
        <ele>120.3</ele>
        <time>2019-10-27T10:47:01Z</time>
      </trkpt>
      <trkpt lat="43.48364" lon="6.23258">
        <ele>121</ele>
        <time>2019-10-27T10:47:32Z</time>
      </trkpt>
      <trkpt lat="43.48372" lon="6.23264">
        <ele>120.9</ele>
        <time>2019-10-27T10:47:41Z</time>
      </trkpt>
      <trkpt lat="43.48381" lon="6.23265">
        <ele>121.4</ele>
        <time>2019-10-27T10:47:52Z</time>
      </trkpt>
      <trkpt lat="43.48391" lon="6.23266">
        <ele>121.4</ele>
        <time>2019-10-27T10:48:01Z</time>
      </trkpt>
      <trkpt lat="43.48401" lon="6.23267">
        <ele>121.1</ele>
        <time>2019-10-27T10:48:10Z</time>
      </trkpt>
      <trkpt lat="43.48411" lon="6.23268">
        <ele>121.3</ele>
        <time>2019-10-27T10:48:18Z</time>
      </trkpt>
      <trkpt lat="43.4842" lon="6.2327">
        <ele>121.4</ele>
        <time>2019-10-27T10:48:25Z</time>
      </trkpt>
      <trkpt lat="43.48429" lon="6.23274">
        <ele>121.6</ele>
        <time>2019-10-27T10:48:33Z</time>
      </trkpt>
      <trkpt lat="43.48439" lon="6.23275">
        <ele>121.5</ele>
        <time>2019-10-27T10:48:41Z</time>
      </trkpt>
      <trkpt lat="43.48449" lon="6.23277">
        <ele>121.6</ele>
        <time>2019-10-27T10:48:49Z</time>
      </trkpt>
      <trkpt lat="43.48459" lon="6.23278">
        <ele>121.6</ele>
        <time>2019-10-27T10:48:59Z</time>
      </trkpt>
      <trkpt lat="43.48469" lon="6.2328">
        <ele>121.4</ele>
        <time>2019-10-27T10:49:08Z</time>
      </trkpt>
      <trkpt lat="43.48477" lon="6.23283">
        <ele>121.1</ele>
        <time>2019-10-27T10:49:16Z</time>
      </trkpt>
      <trkpt lat="43.48487" lon="6.23285">
        <ele>121.3</ele>
        <time>2019-10-27T10:49:26Z</time>
      </trkpt>
      <trkpt lat="43.48496" lon="6.23286">
        <ele>121.3</ele>
        <time>2019-10-27T10:49:34Z</time>
      </trkpt>
      <trkpt lat="43.48505" lon="6.23289">
        <ele>121.1</ele>
        <time>2019-10-27T10:49:42Z</time>
      </trkpt>
      <trkpt lat="43.48514" lon="6.23293">
        <ele>121.3</ele>
        <time>2019-10-27T10:49:54Z</time>
      </trkpt>
      <trkpt lat="43.48524" lon="6.23293">
        <ele>121.1</ele>
        <time>2019-10-27T10:50:03Z</time>
      </trkpt>
      <trkpt lat="43.48533" lon="6.23296">
        <ele>121.5</ele>
        <time>2019-10-27T10:50:12Z</time>
      </trkpt>
      <trkpt lat="43.48542" lon="6.23299">
        <ele>121.7</ele>
        <time>2019-10-27T10:50:21Z</time>
      </trkpt>
      <trkpt lat="43.48551" lon="6.23299">
        <ele>122.6</ele>
        <time>2019-10-27T10:50:31Z</time>
      </trkpt>
      <trkpt lat="43.48559" lon="6.23306">
        <ele>122.9</ele>
        <time>2019-10-27T10:50:40Z</time>
      </trkpt>
      <trkpt lat="43.48568" lon="6.23311">
        <ele>123.4</ele>
        <time>2019-10-27T10:50:51Z</time>
      </trkpt>
      <trkpt lat="43.48577" lon="6.23311">
        <ele>124.2</ele>
        <time>2019-10-27T10:51:00Z</time>
      </trkpt>
      <trkpt lat="43.48585" lon="6.23304">
        <ele>124.7</ele>
        <time>2019-10-27T10:51:07Z</time>
      </trkpt>
      <trkpt lat="43.48587" lon="6.2329">
        <ele>125.8</ele>
        <time>2019-10-27T10:51:17Z</time>
      </trkpt>
      <trkpt lat="43.48588" lon="6.23277">
        <ele>126.6</ele>
        <time>2019-10-27T10:51:27Z</time>
      </trkpt>
      <trkpt lat="43.4859" lon="6.23265">
        <ele>127.3</ele>
        <time>2019-10-27T10:51:35Z</time>
      </trkpt>
      <trkpt lat="43.48589" lon="6.23252">
        <ele>128.2</ele>
        <time>2019-10-27T10:51:45Z</time>
      </trkpt>
      <trkpt lat="43.48592" lon="6.2324">
        <ele>129.5</ele>
        <time>2019-10-27T10:51:57Z</time>
      </trkpt>
      <trkpt lat="43.48593" lon="6.23226">
        <ele>130.3</ele>
        <time>2019-10-27T10:52:06Z</time>
      </trkpt>
      <trkpt lat="43.48596" lon="6.23214">
        <ele>130.6</ele>
        <time>2019-10-27T10:52:14Z</time>
      </trkpt>
      <trkpt lat="43.48596" lon="6.23201">
        <ele>130.8</ele>
        <time>2019-10-27T10:52:24Z</time>
      </trkpt>
      <trkpt lat="43.486" lon="6.2319">
        <ele>131.2</ele>
        <time>2019-10-27T10:52:34Z</time>
      </trkpt>
      <trkpt lat="43.48605" lon="6.23178">
        <ele>131.9</ele>
        <time>2019-10-27T10:52:44Z</time>
      </trkpt>
      <trkpt lat="43.48606" lon="6.23165">
        <ele>132.4</ele>
        <time>2019-10-27T10:52:54Z</time>
      </trkpt>
      <trkpt lat="43.48607" lon="6.23152">
        <ele>133.1</ele>
        <time>2019-10-27T10:53:05Z</time>
      </trkpt>
      <trkpt lat="43.48614" lon="6.23144">
        <ele>134.7</ele>
        <time>2019-10-27T10:53:49Z</time>
      </trkpt>
      <trkpt lat="43.48613" lon="6.23157">
        <ele>135.6</ele>
        <time>2019-10-27T10:54:14Z</time>
      </trkpt>
      <trkpt lat="43.48616" lon="6.23169">
        <ele>135.9</ele>
        <time>2019-10-27T10:54:25Z</time>
      </trkpt>
      <trkpt lat="43.48617" lon="6.23181">
        <ele>135.8</ele>
        <time>2019-10-27T10:54:40Z</time>
      </trkpt>
      <trkpt lat="43.48618" lon="6.23194">
        <ele>136.1</ele>
        <time>2019-10-27T10:54:50Z</time>
      </trkpt>
      <trkpt lat="43.48619" lon="6.23207">
        <ele>135.9</ele>
        <time>2019-10-27T10:55:01Z</time>
      </trkpt>
      <trkpt lat="43.48622" lon="6.2322">
        <ele>135.4</ele>
        <time>2019-10-27T10:55:14Z</time>
      </trkpt>
      <trkpt lat="43.48629" lon="6.23231">
        <ele>135.4</ele>
        <time>2019-10-27T10:55:26Z</time>
      </trkpt>
      <trkpt lat="43.48638" lon="6.23228">
        <ele>136.1</ele>
        <time>2019-10-27T10:55:37Z</time>
      </trkpt>
      <trkpt lat="43.48644" lon="6.23238">
        <ele>136.8</ele>
        <time>2019-10-27T10:55:46Z</time>
      </trkpt>
      <trkpt lat="43.48648" lon="6.2325">
        <ele>137.2</ele>
        <time>2019-10-27T10:55:57Z</time>
      </trkpt>
      <trkpt lat="43.48656" lon="6.23258">
        <ele>138.7</ele>
        <time>2019-10-27T10:56:15Z</time>
      </trkpt>
      <trkpt lat="43.48664" lon="6.23266">
        <ele>139.1</ele>
        <time>2019-10-27T10:56:26Z</time>
      </trkpt>
      <trkpt lat="43.48669" lon="6.23276">
        <ele>140.1</ele>
        <time>2019-10-27T10:56:35Z</time>
      </trkpt>
      <trkpt lat="43.48673" lon="6.23287">
        <ele>141.2</ele>
        <time>2019-10-27T10:56:47Z</time>
      </trkpt>
      <trkpt lat="43.48675" lon="6.23301">
        <ele>141.5</ele>
        <time>2019-10-27T10:57:02Z</time>
      </trkpt>
      <trkpt lat="43.48675" lon="6.23314">
        <ele>141.2</ele>
        <time>2019-10-27T10:57:11Z</time>
      </trkpt>
      <trkpt lat="43.48674" lon="6.23326">
        <ele>141.1</ele>
        <time>2019-10-27T10:57:18Z</time>
      </trkpt>
      <trkpt lat="43.48677" lon="6.23339">
        <ele>141.2</ele>
        <time>2019-10-27T10:57:26Z</time>
      </trkpt>
      <trkpt lat="43.48682" lon="6.2335">
        <ele>141.6</ele>
        <time>2019-10-27T10:57:36Z</time>
      </trkpt>
      <trkpt lat="43.48686" lon="6.23362">
        <ele>141.7</ele>
        <time>2019-10-27T10:57:43Z</time>
      </trkpt>
      <trkpt lat="43.48689" lon="6.23375">
        <ele>142.7</ele>
        <time>2019-10-27T10:57:54Z</time>
      </trkpt>
      <trkpt lat="43.48694" lon="6.23387">
        <ele>143.2</ele>
        <time>2019-10-27T10:58:03Z</time>
      </trkpt>
      <trkpt lat="43.48699" lon="6.23397">
        <ele>144.4</ele>
        <time>2019-10-27T10:58:16Z</time>
      </trkpt>
      <trkpt lat="43.48708" lon="6.23393">
        <ele>145.5</ele>
        <time>2019-10-27T10:58:31Z</time>
      </trkpt>
      <trkpt lat="43.48716" lon="6.23388">
        <ele>146.7</ele>
        <time>2019-10-27T10:58:45Z</time>
      </trkpt>
      <trkpt lat="43.48724" lon="6.2338">
        <ele>148</ele>
        <time>2019-10-27T10:59:01Z</time>
      </trkpt>
      <trkpt lat="43.48731" lon="6.23372">
        <ele>151</ele>
        <time>2019-10-27T10:59:25Z</time>
      </trkpt>
      <trkpt lat="43.48736" lon="6.23361">
        <ele>152.2</ele>
        <time>2019-10-27T10:59:36Z</time>
      </trkpt>
      <trkpt lat="43.48742" lon="6.23351">
        <ele>154.9</ele>
        <time>2019-10-27T10:59:55Z</time>
      </trkpt>
      <trkpt lat="43.48749" lon="6.23343">
        <ele>158.4</ele>
        <time>2019-10-27T11:00:22Z</time>
      </trkpt>
      <trkpt lat="43.48758" lon="6.23349">
        <ele>161.1</ele>
        <time>2019-10-27T11:00:40Z</time>
      </trkpt>
      <trkpt lat="43.48766" lon="6.23354">
        <ele>162.8</ele>
        <time>2019-10-27T11:00:53Z</time>
      </trkpt>
      <trkpt lat="43.48773" lon="6.23346">
        <ele>165.4</ele>
        <time>2019-10-27T11:01:42Z</time>
      </trkpt>
      <trkpt lat="43.48773" lon="6.23332">
        <ele>166.3</ele>
        <time>2019-10-27T11:03:13Z</time>
      </trkpt>
      <trkpt lat="43.48773" lon="6.23319">
        <ele>166.8</ele>
        <time>2019-10-27T11:03:32Z</time>
      </trkpt>
      <trkpt lat="43.4877" lon="6.23307">
        <ele>167.3</ele>
        <time>2019-10-27T11:03:43Z</time>
      </trkpt>
      <trkpt lat="43.48767" lon="6.23293">
        <ele>167.9</ele>
        <time>2019-10-27T11:03:53Z</time>
      </trkpt>
      <trkpt lat="43.48764" lon="6.23282">
        <ele>168.3</ele>
        <time>2019-10-27T11:04:01Z</time>
      </trkpt>
      <trkpt lat="43.48759" lon="6.23271">
        <ele>168.7</ele>
        <time>2019-10-27T11:04:09Z</time>
      </trkpt>
      <trkpt lat="43.4876" lon="6.23258">
        <ele>168.8</ele>
        <time>2019-10-27T11:04:20Z</time>
      </trkpt>
      <trkpt lat="43.48762" lon="6.23244">
        <ele>168.8</ele>
        <time>2019-10-27T11:04:28Z</time>
      </trkpt>
      <trkpt lat="43.48761" lon="6.23231">
        <ele>168.6</ele>
        <time>2019-10-27T11:04:37Z</time>
      </trkpt>
      <trkpt lat="43.48762" lon="6.23218">
        <ele>168.5</ele>
        <time>2019-10-27T11:04:46Z</time>
      </trkpt>
      <trkpt lat="43.48765" lon="6.23205">
        <ele>168.5</ele>
        <time>2019-10-27T11:04:54Z</time>
      </trkpt>
      <trkpt lat="43.48766" lon="6.23192">
        <ele>168.9</ele>
        <time>2019-10-27T11:05:04Z</time>
      </trkpt>
      <trkpt lat="43.48766" lon="6.23178">
        <ele>169</ele>
        <time>2019-10-27T11:05:14Z</time>
      </trkpt>
      <trkpt lat="43.48764" lon="6.23165">
        <ele>169.1</ele>
        <time>2019-10-27T11:05:25Z</time>
      </trkpt>
      <trkpt lat="43.48763" lon="6.23153">
        <ele>169.2</ele>
        <time>2019-10-27T11:05:34Z</time>
      </trkpt>
      <trkpt lat="43.48767" lon="6.23141">
        <ele>169.1</ele>
        <time>2019-10-27T11:05:42Z</time>
      </trkpt>
      <trkpt lat="43.48768" lon="6.23128">
        <ele>169.2</ele>
        <time>2019-10-27T11:05:52Z</time>
      </trkpt>
      <trkpt lat="43.48766" lon="6.23115">
        <ele>169.1</ele>
        <time>2019-10-27T11:06:02Z</time>
      </trkpt>
      <trkpt lat="43.48768" lon="6.23101">
        <ele>168.6</ele>
        <time>2019-10-27T11:06:13Z</time>
      </trkpt>
      <trkpt lat="43.48767" lon="6.23088">
        <ele>168.6</ele>
        <time>2019-10-27T11:06:22Z</time>
      </trkpt>
      <trkpt lat="43.48768" lon="6.23075">
        <ele>168.2</ele>
        <time>2019-10-27T11:06:32Z</time>
      </trkpt>
      <trkpt lat="43.4877" lon="6.23062">
        <ele>167.5</ele>
        <time>2019-10-27T11:06:42Z</time>
      </trkpt>
      <trkpt lat="43.48771" lon="6.23049">
        <ele>167</ele>
        <time>2019-10-27T11:06:54Z</time>
      </trkpt>
      <trkpt lat="43.48774" lon="6.23036">
        <ele>167.4</ele>
        <time>2019-10-27T11:07:05Z</time>
      </trkpt>
      <trkpt lat="43.48776" lon="6.23023">
        <ele>168.4</ele>
        <time>2019-10-27T11:07:15Z</time>
      </trkpt>
      <trkpt lat="43.48781" lon="6.23012">
        <ele>168.9</ele>
        <time>2019-10-27T11:07:23Z</time>
      </trkpt>
      <trkpt lat="43.48784" lon="6.22999">
        <ele>169</ele>
        <time>2019-10-27T11:07:32Z</time>
      </trkpt>
      <trkpt lat="43.48787" lon="6.22987">
        <ele>169.5</ele>
        <time>2019-10-27T11:07:40Z</time>
      </trkpt>
      <trkpt lat="43.48786" lon="6.22973">
        <ele>169.7</ele>
        <time>2019-10-27T11:07:50Z</time>
      </trkpt>
      <trkpt lat="43.48791" lon="6.22963">
        <ele>169.3</ele>
        <time>2019-10-27T11:07:58Z</time>
      </trkpt>
      <trkpt lat="43.48795" lon="6.2295">
        <ele>168.9</ele>
        <time>2019-10-27T11:08:09Z</time>
      </trkpt>
      <trkpt lat="43.48801" lon="6.22942">
        <ele>168.8</ele>
        <time>2019-10-27T11:08:15Z</time>
      </trkpt>
      <trkpt lat="43.48805" lon="6.2293">
        <ele>168.6</ele>
        <time>2019-10-27T11:08:22Z</time>
      </trkpt>
      <trkpt lat="43.48807" lon="6.22918">
        <ele>168.7</ele>
        <time>2019-10-27T11:08:32Z</time>
      </trkpt>
      <trkpt lat="43.48811" lon="6.22905">
        <ele>169.1</ele>
        <time>2019-10-27T11:08:44Z</time>
      </trkpt>
      <trkpt lat="43.48813" lon="6.22893">
        <ele>169</ele>
        <time>2019-10-27T11:08:53Z</time>
      </trkpt>
      <trkpt lat="43.48816" lon="6.22881">
        <ele>169.6</ele>
        <time>2019-10-27T11:09:05Z</time>
      </trkpt>
      <trkpt lat="43.48821" lon="6.2287">
        <ele>170</ele>
        <time>2019-10-27T11:09:14Z</time>
      </trkpt>
      <trkpt lat="43.48827" lon="6.2286">
        <ele>170.6</ele>
        <time>2019-10-27T11:09:22Z</time>
      </trkpt>
      <trkpt lat="43.48831" lon="6.22848">
        <ele>171.2</ele>
        <time>2019-10-27T11:09:35Z</time>
      </trkpt>
      <trkpt lat="43.48833" lon="6.22836">
        <ele>171.9</ele>
        <time>2019-10-27T11:09:48Z</time>
      </trkpt>
      <trkpt lat="43.48838" lon="6.22824">
        <ele>172.6</ele>
        <time>2019-10-27T11:09:56Z</time>
      </trkpt>
      <trkpt lat="43.48841" lon="6.22812">
        <ele>172.8</ele>
        <time>2019-10-27T11:10:05Z</time>
      </trkpt>
      <trkpt lat="43.48844" lon="6.228">
        <ele>173.2</ele>
        <time>2019-10-27T11:10:16Z</time>
      </trkpt>
      <trkpt lat="43.48849" lon="6.22788">
        <ele>172.8</ele>
        <time>2019-10-27T11:10:26Z</time>
      </trkpt>
      <trkpt lat="43.48848" lon="6.22774">
        <ele>171.2</ele>
        <time>2019-10-27T11:12:31Z</time>
      </trkpt>
      <trkpt lat="43.48853" lon="6.22763">
        <ele>170.9</ele>
        <time>2019-10-27T11:12:38Z</time>
      </trkpt>
      <trkpt lat="43.48856" lon="6.2275">
        <ele>170.7</ele>
        <time>2019-10-27T11:12:45Z</time>
      </trkpt>
      <trkpt lat="43.48855" lon="6.22738">
        <ele>170.8</ele>
        <time>2019-10-27T11:12:51Z</time>
      </trkpt>
      <trkpt lat="43.48853" lon="6.22725">
        <ele>170.8</ele>
        <time>2019-10-27T11:12:58Z</time>
      </trkpt>
      <trkpt lat="43.48853" lon="6.22712">
        <ele>171.2</ele>
        <time>2019-10-27T11:13:05Z</time>
      </trkpt>
      <trkpt lat="43.48855" lon="6.22698">
        <ele>171.3</ele>
        <time>2019-10-27T11:13:14Z</time>
      </trkpt>
      <trkpt lat="43.48859" lon="6.22685">
        <ele>171.4</ele>
        <time>2019-10-27T11:13:22Z</time>
      </trkpt>
      <trkpt lat="43.48863" lon="6.22672">
        <ele>171.5</ele>
        <time>2019-10-27T11:13:30Z</time>
      </trkpt>
      <trkpt lat="43.48867" lon="6.22659">
        <ele>171.1</ele>
        <time>2019-10-27T11:13:39Z</time>
      </trkpt>
      <trkpt lat="43.48867" lon="6.22647">
        <ele>171.4</ele>
        <time>2019-10-27T11:13:51Z</time>
      </trkpt>
      <trkpt lat="43.48865" lon="6.22633">
        <ele>172.2</ele>
        <time>2019-10-27T11:14:25Z</time>
      </trkpt>
      <trkpt lat="43.48857" lon="6.22626">
        <ele>172.8</ele>
        <time>2019-10-27T11:14:51Z</time>
      </trkpt>
      <trkpt lat="43.48854" lon="6.22614">
        <ele>173.1</ele>
        <time>2019-10-27T11:15:07Z</time>
      </trkpt>
      <trkpt lat="43.48856" lon="6.22601">
        <ele>173.4</ele>
        <time>2019-10-27T11:15:18Z</time>
      </trkpt>
      <trkpt lat="43.48858" lon="6.22588">
        <ele>173.6</ele>
        <time>2019-10-27T11:15:28Z</time>
      </trkpt>
      <trkpt lat="43.48863" lon="6.22576">
        <ele>173.6</ele>
        <time>2019-10-27T11:15:36Z</time>
      </trkpt>
      <trkpt lat="43.48865" lon="6.22562">
        <ele>173.5</ele>
        <time>2019-10-27T11:15:47Z</time>
      </trkpt>
      <trkpt lat="43.48869" lon="6.22551">
        <ele>173.5</ele>
        <time>2019-10-27T11:15:58Z</time>
      </trkpt>
      <trkpt lat="43.48877" lon="6.22559">
        <ele>173.6</ele>
        <time>2019-10-27T11:16:12Z</time>
      </trkpt>
      <trkpt lat="43.48884" lon="6.22567">
        <ele>173.6</ele>
        <time>2019-10-27T11:16:21Z</time>
      </trkpt>
      <trkpt lat="43.48893" lon="6.22566">
        <ele>173.2</ele>
        <time>2019-10-27T11:16:32Z</time>
      </trkpt>
      <trkpt lat="43.48898" lon="6.22555">
        <ele>173</ele>
        <time>2019-10-27T11:16:40Z</time>
      </trkpt>
      <trkpt lat="43.48905" lon="6.22547">
        <ele>172.2</ele>
        <time>2019-10-27T11:16:50Z</time>
      </trkpt>
      <trkpt lat="43.48914" lon="6.22542">
        <ele>170.6</ele>
        <time>2019-10-27T11:17:04Z</time>
      </trkpt>
      <trkpt lat="43.48923" lon="6.22538">
        <ele>169.1</ele>
        <time>2019-10-27T11:17:18Z</time>
      </trkpt>
      <trkpt lat="43.48931" lon="6.22533">
        <ele>167.6</ele>
        <time>2019-10-27T11:17:32Z</time>
      </trkpt>
      <trkpt lat="43.4894" lon="6.22527">
        <ele>165.9</ele>
        <time>2019-10-27T11:17:45Z</time>
      </trkpt>
      <trkpt lat="43.48948" lon="6.22519">
        <ele>164.5</ele>
        <time>2019-10-27T11:17:55Z</time>
      </trkpt>
      <trkpt lat="43.48956" lon="6.22512">
        <ele>163.1</ele>
        <time>2019-10-27T11:18:06Z</time>
      </trkpt>
      <trkpt lat="43.48964" lon="6.22505">
        <ele>162.1</ele>
        <time>2019-10-27T11:18:17Z</time>
      </trkpt>
      <trkpt lat="43.4897" lon="6.22495">
        <ele>161.6</ele>
        <time>2019-10-27T11:18:24Z</time>
      </trkpt>
      <trkpt lat="43.48977" lon="6.22486">
        <ele>160.5</ele>
        <time>2019-10-27T11:18:36Z</time>
      </trkpt>
      <trkpt lat="43.48983" lon="6.22477">
        <ele>158.8</ele>
        <time>2019-10-27T11:18:50Z</time>
      </trkpt>
      <trkpt lat="43.48991" lon="6.2247">
        <ele>157.8</ele>
        <time>2019-10-27T11:19:01Z</time>
      </trkpt>
      <trkpt lat="43.48994" lon="6.22457">
        <ele>156.8</ele>
        <time>2019-10-27T11:19:10Z</time>
      </trkpt>
      <trkpt lat="43.49003" lon="6.22451">
        <ele>155.9</ele>
        <time>2019-10-27T11:19:20Z</time>
      </trkpt>
      <trkpt lat="43.49012" lon="6.22443">
        <ele>155.2</ele>
        <time>2019-10-27T11:19:28Z</time>
      </trkpt>
      <trkpt lat="43.4902" lon="6.22436">
        <ele>154.2</ele>
        <time>2019-10-27T11:19:38Z</time>
      </trkpt>
      <trkpt lat="43.49026" lon="6.22425">
        <ele>153.7</ele>
        <time>2019-10-27T11:19:51Z</time>
      </trkpt>
      <trkpt lat="43.49034" lon="6.22419">
        <ele>153.1</ele>
        <time>2019-10-27T11:19:58Z</time>
      </trkpt>
      <trkpt lat="43.49043" lon="6.22412">
        <ele>152.3</ele>
        <time>2019-10-27T11:20:10Z</time>
      </trkpt>
      <trkpt lat="43.49052" lon="6.22407">
        <ele>151.9</ele>
        <time>2019-10-27T11:20:20Z</time>
      </trkpt>
      <trkpt lat="43.4906" lon="6.224">
        <ele>151.1</ele>
        <time>2019-10-27T11:20:28Z</time>
      </trkpt>
      <trkpt lat="43.49064" lon="6.22389">
        <ele>150.7</ele>
        <time>2019-10-27T11:20:37Z</time>
      </trkpt>
      <trkpt lat="43.49071" lon="6.2238">
        <ele>150.5</ele>
        <time>2019-10-27T11:20:43Z</time>
      </trkpt>
      <trkpt lat="43.49066" lon="6.2239">
        <ele>148.9</ele>
        <time>2019-10-27T11:20:58Z</time>
      </trkpt>
      <trkpt lat="43.49059" lon="6.224">
        <ele>147.9</ele>
        <time>2019-10-27T11:21:06Z</time>
      </trkpt>
      <trkpt lat="43.49054" lon="6.22413">
        <ele>147.5</ele>
        <time>2019-10-27T11:21:12Z</time>
      </trkpt>
      <trkpt lat="43.49049" lon="6.22424">
        <ele>146.6</ele>
        <time>2019-10-27T11:21:24Z</time>
      </trkpt>
      <trkpt lat="43.49041" lon="6.22434">
        <ele>146.4</ele>
        <time>2019-10-27T11:21:34Z</time>
      </trkpt>
      <trkpt lat="43.49036" lon="6.22445">
        <ele>145.8</ele>
        <time>2019-10-27T11:21:44Z</time>
      </trkpt>
      <trkpt lat="43.49035" lon="6.22458">
        <ele>144.7</ele>
        <time>2019-10-27T11:21:56Z</time>
      </trkpt>
      <trkpt lat="43.49029" lon="6.22468">
        <ele>144.1</ele>
        <time>2019-10-27T11:22:07Z</time>
      </trkpt>
      <trkpt lat="43.49026" lon="6.2248">
        <ele>142.5</ele>
        <time>2019-10-27T11:22:20Z</time>
      </trkpt>
      <trkpt lat="43.49023" lon="6.22494">
        <ele>141.4</ele>
        <time>2019-10-27T11:22:36Z</time>
      </trkpt>
      <trkpt lat="43.4902" lon="6.22506">
        <ele>140.7</ele>
        <time>2019-10-27T11:22:43Z</time>
      </trkpt>
      <trkpt lat="43.49014" lon="6.22516">
        <ele>139.4</ele>
        <time>2019-10-27T11:22:51Z</time>
      </trkpt>
      <trkpt lat="43.49014" lon="6.2253">
        <ele>138.2</ele>
        <time>2019-10-27T11:23:00Z</time>
      </trkpt>
      <trkpt lat="43.49013" lon="6.22542">
        <ele>136.6</ele>
        <time>2019-10-27T11:23:11Z</time>
      </trkpt>
      <trkpt lat="43.49013" lon="6.22555">
        <ele>134.2</ele>
        <time>2019-10-27T11:23:34Z</time>
      </trkpt>
      <trkpt lat="43.4901" lon="6.22567">
        <ele>132.9</ele>
        <time>2019-10-27T11:23:53Z</time>
      </trkpt>
      <trkpt lat="43.49007" lon="6.22579">
        <ele>131.7</ele>
        <time>2019-10-27T11:24:03Z</time>
      </trkpt>
      <trkpt lat="43.49005" lon="6.22591">
        <ele>130.9</ele>
        <time>2019-10-27T11:24:12Z</time>
      </trkpt>
      <trkpt lat="43.49008" lon="6.22604">
        <ele>130</ele>
        <time>2019-10-27T11:24:23Z</time>
      </trkpt>
      <trkpt lat="43.49014" lon="6.22614">
        <ele>129.7</ele>
        <time>2019-10-27T11:24:40Z</time>
      </trkpt>
      <trkpt lat="43.49022" lon="6.2262">
        <ele>130</ele>
        <time>2019-10-27T11:24:49Z</time>
      </trkpt>
      <trkpt lat="43.4903" lon="6.22627">
        <ele>129.9</ele>
        <time>2019-10-27T11:25:15Z</time>
      </trkpt>
      <trkpt lat="43.4904" lon="6.2263">
        <ele>129.9</ele>
        <time>2019-10-27T11:25:25Z</time>
      </trkpt>
      <trkpt lat="43.49048" lon="6.22634">
        <ele>130.3</ele>
        <time>2019-10-27T11:25:58Z</time>
      </trkpt>
      <trkpt lat="43.49057" lon="6.2264">
        <ele>130.1</ele>
        <time>2019-10-27T11:26:11Z</time>
      </trkpt>
      <trkpt lat="43.49066" lon="6.22644">
        <ele>130.3</ele>
        <time>2019-10-27T11:26:21Z</time>
      </trkpt>
      <trkpt lat="43.49076" lon="6.22645">
        <ele>130.4</ele>
        <time>2019-10-27T11:26:31Z</time>
      </trkpt>
      <trkpt lat="43.49085" lon="6.22649">
        <ele>130.8</ele>
        <time>2019-10-27T11:26:40Z</time>
      </trkpt>
      <trkpt lat="43.49094" lon="6.22652">
        <ele>130.9</ele>
        <time>2019-10-27T11:26:48Z</time>
      </trkpt>
      <trkpt lat="43.49103" lon="6.22652">
        <ele>130.8</ele>
        <time>2019-10-27T11:26:58Z</time>
      </trkpt>
      <trkpt lat="43.49111" lon="6.22658">
        <ele>130.8</ele>
        <time>2019-10-27T11:27:10Z</time>
      </trkpt>
      <trkpt lat="43.49116" lon="6.22669">
        <ele>130.9</ele>
        <time>2019-10-27T11:27:20Z</time>
      </trkpt>
      <trkpt lat="43.49122" lon="6.22679">
        <ele>130.5</ele>
        <time>2019-10-27T11:27:32Z</time>
      </trkpt>
      <trkpt lat="43.49116" lon="6.2269">
        <ele>130.4</ele>
        <time>2019-10-27T11:27:45Z</time>
      </trkpt>
      <trkpt lat="43.49107" lon="6.22689">
        <ele>129</ele>
        <time>2019-10-27T11:28:24Z</time>
      </trkpt>
      <trkpt lat="43.49097" lon="6.22692">
        <ele>128.5</ele>
        <time>2019-10-27T11:28:37Z</time>
      </trkpt>
      <trkpt lat="43.49089" lon="6.22699">
        <ele>128.3</ele>
        <time>2019-10-27T11:28:46Z</time>
      </trkpt>
      <trkpt lat="43.49083" lon="6.22707">
        <ele>128.4</ele>
        <time>2019-10-27T11:28:55Z</time>
      </trkpt>
      <trkpt lat="43.49074" lon="6.22709">
        <ele>128.1</ele>
        <time>2019-10-27T11:29:07Z</time>
      </trkpt>
      <trkpt lat="43.49065" lon="6.22705">
        <ele>128.1</ele>
        <time>2019-10-27T11:29:15Z</time>
      </trkpt>
      <trkpt lat="43.49055" lon="6.22709">
        <ele>128.1</ele>
        <time>2019-10-27T11:29:23Z</time>
      </trkpt>
      <trkpt lat="43.49046" lon="6.22711">
        <ele>128.3</ele>
        <time>2019-10-27T11:29:33Z</time>
      </trkpt>
      <trkpt lat="43.49036" lon="6.22713">
        <ele>128.7</ele>
        <time>2019-10-27T11:29:44Z</time>
      </trkpt>
      <trkpt lat="43.49027" lon="6.22714">
        <ele>128.6</ele>
        <time>2019-10-27T11:29:54Z</time>
      </trkpt>
      <trkpt lat="43.49018" lon="6.22715">
        <ele>128.8</ele>
        <time>2019-10-27T11:30:03Z</time>
      </trkpt>
      <trkpt lat="43.49008" lon="6.22715">
        <ele>128.4</ele>
        <time>2019-10-27T11:30:13Z</time>
      </trkpt>
      <trkpt lat="43.49011" lon="6.22728">
        <ele>128.2</ele>
        <time>2019-10-27T11:31:04Z</time>
      </trkpt>
      <trkpt lat="43.49003" lon="6.22735">
        <ele>127.8</ele>
        <time>2019-10-27T11:44:13Z</time>
      </trkpt>
      <trkpt lat="43.49011" lon="6.2273">
        <ele>128.2</ele>
        <time>2019-10-27T11:44:45Z</time>
      </trkpt>
      <trkpt lat="43.4902" lon="6.2273">
        <ele>130.8</ele>
        <time>2019-10-27T11:51:23Z</time>
      </trkpt>
      <trkpt lat="43.49011" lon="6.22727">
        <ele>130.3</ele>
        <time>2019-10-27T11:54:18Z</time>
      </trkpt>
      <trkpt lat="43.49002" lon="6.22724">
        <ele>130.5</ele>
        <time>2019-10-27T11:54:45Z</time>
      </trkpt>
      <trkpt lat="43.4901" lon="6.22731">
        <ele>130.7</ele>
        <time>2019-10-27T11:55:49Z</time>
      </trkpt>
      <trkpt lat="43.49019" lon="6.22734">
        <ele>130.7</ele>
        <time>2019-10-27T11:56:06Z</time>
      </trkpt>
      <trkpt lat="43.4901" lon="6.22729">
        <ele>130.9</ele>
        <time>2019-10-27T12:01:30Z</time>
      </trkpt>
      <trkpt lat="43.49019" lon="6.2273">
        <ele>132.2</ele>
        <time>2019-10-27T12:09:06Z</time>
      </trkpt>
      <trkpt lat="43.4901" lon="6.22732">
        <ele>134.1</ele>
        <time>2019-10-27T12:13:04Z</time>
      </trkpt>
      <trkpt lat="43.49019" lon="6.22734">
        <ele>134.1</ele>
        <time>2019-10-27T12:13:52Z</time>
      </trkpt>
      <trkpt lat="43.49028" lon="6.22731">
        <ele>133.9</ele>
        <time>2019-10-27T12:14:00Z</time>
      </trkpt>
      <trkpt lat="43.49019" lon="6.22728">
        <ele>132.3</ele>
        <time>2019-10-27T12:15:32Z</time>
      </trkpt>
      <trkpt lat="43.4901" lon="6.22727">
        <ele>132.2</ele>
        <time>2019-10-27T12:20:00Z</time>
      </trkpt>
      <trkpt lat="43.49019" lon="6.22729">
        <ele>132.3</ele>
        <time>2019-10-27T12:21:07Z</time>
      </trkpt>
      <trkpt lat="43.49029" lon="6.22728">
        <ele>132.5</ele>
        <time>2019-10-27T12:21:21Z</time>
      </trkpt>
      <trkpt lat="43.49038" lon="6.22729">
        <ele>132.7</ele>
        <time>2019-10-27T12:21:32Z</time>
      </trkpt>
      <trkpt lat="43.49048" lon="6.22731">
        <ele>132.8</ele>
        <time>2019-10-27T12:21:44Z</time>
      </trkpt>
      <trkpt lat="43.49058" lon="6.22731">
        <ele>132.8</ele>
        <time>2019-10-27T12:21:52Z</time>
      </trkpt>
      <trkpt lat="43.49067" lon="6.22733">
        <ele>133.2</ele>
        <time>2019-10-27T12:23:07Z</time>
      </trkpt>
      <trkpt lat="43.49077" lon="6.22729">
        <ele>133.2</ele>
        <time>2019-10-27T12:23:14Z</time>
      </trkpt>
      <trkpt lat="43.49085" lon="6.22724">
        <ele>133.1</ele>
        <time>2019-10-27T12:23:21Z</time>
      </trkpt>
      <trkpt lat="43.49087" lon="6.22711">
        <ele>132.9</ele>
        <time>2019-10-27T12:23:38Z</time>
      </trkpt>
      <trkpt lat="43.49095" lon="6.22704">
        <ele>132.9</ele>
        <time>2019-10-27T12:24:26Z</time>
      </trkpt>
      <trkpt lat="43.49102" lon="6.22695">
        <ele>132.9</ele>
        <time>2019-10-27T12:24:36Z</time>
      </trkpt>
      <trkpt lat="43.49107" lon="6.22706">
        <ele>134.1</ele>
        <time>2019-10-27T12:25:31Z</time>
      </trkpt>
      <trkpt lat="43.49116" lon="6.22704">
        <ele>134.5</ele>
        <time>2019-10-27T12:25:43Z</time>
      </trkpt>
      <trkpt lat="43.49125" lon="6.22699">
        <ele>134.8</ele>
        <time>2019-10-27T12:25:52Z</time>
      </trkpt>
      <trkpt lat="43.49133" lon="6.22691">
        <ele>135</ele>
        <time>2019-10-27T12:26:02Z</time>
      </trkpt>
      <trkpt lat="43.49139" lon="6.22683">
        <ele>135.1</ele>
        <time>2019-10-27T12:26:14Z</time>
      </trkpt>
      <trkpt lat="43.49145" lon="6.22673">
        <ele>135.3</ele>
        <time>2019-10-27T12:26:29Z</time>
      </trkpt>
      <trkpt lat="43.49154" lon="6.22665">
        <ele>135.4</ele>
        <time>2019-10-27T12:26:41Z</time>
      </trkpt>
      <trkpt lat="43.49162" lon="6.22661">
        <ele>135.4</ele>
        <time>2019-10-27T12:26:49Z</time>
      </trkpt>
      <trkpt lat="43.49168" lon="6.22652">
        <ele>135.4</ele>
        <time>2019-10-27T12:27:01Z</time>
      </trkpt>
      <trkpt lat="43.49175" lon="6.22644">
        <ele>135.4</ele>
        <time>2019-10-27T12:27:21Z</time>
      </trkpt>
      <trkpt lat="43.49183" lon="6.22637">
        <ele>135.5</ele>
        <time>2019-10-27T12:27:57Z</time>
      </trkpt>
      <trkpt lat="43.4919" lon="6.22628">
        <ele>135.6</ele>
        <time>2019-10-27T12:30:47Z</time>
      </trkpt>
      <trkpt lat="43.49194" lon="6.22617">
        <ele>135.6</ele>
        <time>2019-10-27T12:31:06Z</time>
      </trkpt>
      <trkpt lat="43.49195" lon="6.22603">
        <ele>135.7</ele>
        <time>2019-10-27T12:31:18Z</time>
      </trkpt>
      <trkpt lat="43.49197" lon="6.22591">
        <ele>135.7</ele>
        <time>2019-10-27T12:31:28Z</time>
      </trkpt>
      <trkpt lat="43.49201" lon="6.22578">
        <ele>135.9</ele>
        <time>2019-10-27T12:31:41Z</time>
      </trkpt>
      <trkpt lat="43.49206" lon="6.22566">
        <ele>136</ele>
        <time>2019-10-27T12:31:53Z</time>
      </trkpt>
      <trkpt lat="43.49213" lon="6.22556">
        <ele>136.2</ele>
        <time>2019-10-27T12:32:03Z</time>
      </trkpt>
      <trkpt lat="43.4922" lon="6.22548">
        <ele>136.2</ele>
        <time>2019-10-27T12:32:13Z</time>
      </trkpt>
      <trkpt lat="43.49229" lon="6.22542">
        <ele>136.1</ele>
        <time>2019-10-27T12:32:25Z</time>
      </trkpt>
      <trkpt lat="43.49239" lon="6.2254">
        <ele>136</ele>
        <time>2019-10-27T12:32:34Z</time>
      </trkpt>
      <trkpt lat="43.49245" lon="6.22531">
        <ele>135.5</ele>
        <time>2019-10-27T12:32:46Z</time>
      </trkpt>
      <trkpt lat="43.49245" lon="6.22519">
        <ele>134.7</ele>
        <time>2019-10-27T12:32:59Z</time>
      </trkpt>
      <trkpt lat="43.49254" lon="6.22512">
        <ele>134.4</ele>
        <time>2019-10-27T12:33:11Z</time>
      </trkpt>
      <trkpt lat="43.49262" lon="6.22517">
        <ele>134.3</ele>
        <time>2019-10-27T12:33:40Z</time>
      </trkpt>
      <trkpt lat="43.4927" lon="6.22523">
        <ele>134.5</ele>
        <time>2019-10-27T12:33:58Z</time>
      </trkpt>
      <trkpt lat="43.49272" lon="6.22536">
        <ele>134.8</ele>
        <time>2019-10-27T12:34:15Z</time>
      </trkpt>
      <trkpt lat="43.49277" lon="6.22547">
        <ele>135</ele>
        <time>2019-10-27T12:34:23Z</time>
      </trkpt>
      <trkpt lat="43.49278" lon="6.2256">
        <ele>135.2</ele>
        <time>2019-10-27T12:34:31Z</time>
      </trkpt>
      <trkpt lat="43.49288" lon="6.22562">
        <ele>136</ele>
        <time>2019-10-27T12:35:22Z</time>
      </trkpt>
      <trkpt lat="43.49293" lon="6.22572">
        <ele>136.3</ele>
        <time>2019-10-27T12:35:37Z</time>
      </trkpt>
      <trkpt lat="43.49303" lon="6.2257">
        <ele>136.8</ele>
        <time>2019-10-27T12:36:06Z</time>
      </trkpt>
      <trkpt lat="43.4931" lon="6.22576">
        <ele>137.4</ele>
        <time>2019-10-27T12:36:18Z</time>
      </trkpt>
      <trkpt lat="43.49319" lon="6.22582">
        <ele>137.9</ele>
        <time>2019-10-27T12:36:27Z</time>
      </trkpt>
      <trkpt lat="43.49327" lon="6.22586">
        <ele>138.1</ele>
        <time>2019-10-27T12:36:36Z</time>
      </trkpt>
      <trkpt lat="43.49336" lon="6.22594">
        <ele>138.4</ele>
        <time>2019-10-27T12:36:46Z</time>
      </trkpt>
      <trkpt lat="43.49344" lon="6.22599">
        <ele>138.6</ele>
        <time>2019-10-27T12:36:55Z</time>
      </trkpt>
      <trkpt lat="43.49352" lon="6.22604">
        <ele>138.7</ele>
        <time>2019-10-27T12:37:03Z</time>
      </trkpt>
      <trkpt lat="43.4936" lon="6.2261">
        <ele>138.8</ele>
        <time>2019-10-27T12:37:13Z</time>
      </trkpt>
      <trkpt lat="43.49368" lon="6.22617">
        <ele>138.8</ele>
        <time>2019-10-27T12:37:21Z</time>
      </trkpt>
      <trkpt lat="43.49377" lon="6.22621">
        <ele>138.9</ele>
        <time>2019-10-27T12:37:29Z</time>
      </trkpt>
      <trkpt lat="43.49385" lon="6.22625">
        <ele>138.9</ele>
        <time>2019-10-27T12:37:36Z</time>
      </trkpt>
      <trkpt lat="43.49393" lon="6.22632">
        <ele>138.8</ele>
        <time>2019-10-27T12:37:43Z</time>
      </trkpt>
      <trkpt lat="43.49401" lon="6.22639">
        <ele>138.6</ele>
        <time>2019-10-27T12:37:51Z</time>
      </trkpt>
      <trkpt lat="43.49409" lon="6.22647">
        <ele>138.4</ele>
        <time>2019-10-27T12:38:01Z</time>
      </trkpt>
      <trkpt lat="43.49418" lon="6.22652">
        <ele>138.6</ele>
        <time>2019-10-27T12:38:09Z</time>
      </trkpt>
      <trkpt lat="43.49428" lon="6.22652">
        <ele>138.8</ele>
        <time>2019-10-27T12:38:16Z</time>
      </trkpt>
      <trkpt lat="43.49434" lon="6.22642">
        <ele>139</ele>
        <time>2019-10-27T12:38:24Z</time>
      </trkpt>
      <trkpt lat="43.49439" lon="6.22633">
        <ele>139.1</ele>
        <time>2019-10-27T12:38:33Z</time>
      </trkpt>
      <trkpt lat="43.49444" lon="6.22622">
        <ele>139.2</ele>
        <time>2019-10-27T12:38:42Z</time>
      </trkpt>
      <trkpt lat="43.49452" lon="6.22614">
        <ele>139.8</ele>
        <time>2019-10-27T12:38:52Z</time>
      </trkpt>
      <trkpt lat="43.49461" lon="6.22615">
        <ele>140.8</ele>
        <time>2019-10-27T12:39:03Z</time>
      </trkpt>
      <trkpt lat="43.49469" lon="6.22621">
        <ele>142.9</ele>
        <time>2019-10-27T12:39:19Z</time>
      </trkpt>
      <trkpt lat="43.49477" lon="6.22613">
        <ele>144.3</ele>
        <time>2019-10-27T12:39:34Z</time>
      </trkpt>
      <trkpt lat="43.49484" lon="6.22605">
        <ele>144.8</ele>
        <time>2019-10-27T12:39:45Z</time>
      </trkpt>
      <trkpt lat="43.49489" lon="6.22594">
        <ele>145.2</ele>
        <time>2019-10-27T12:40:08Z</time>
      </trkpt>
      <trkpt lat="43.49497" lon="6.22588">
        <ele>145.1</ele>
        <time>2019-10-27T12:40:18Z</time>
      </trkpt>
      <trkpt lat="43.49505" lon="6.22581">
        <ele>145.1</ele>
        <time>2019-10-27T12:40:27Z</time>
      </trkpt>
      <trkpt lat="43.49511" lon="6.22571">
        <ele>145.2</ele>
        <time>2019-10-27T12:40:41Z</time>
      </trkpt>
      <trkpt lat="43.49518" lon="6.22562">
        <ele>145.4</ele>
        <time>2019-10-27T12:40:50Z</time>
      </trkpt>
      <trkpt lat="43.49526" lon="6.22554">
        <ele>145.4</ele>
        <time>2019-10-27T12:41:01Z</time>
      </trkpt>
      <trkpt lat="43.49531" lon="6.22544">
        <ele>145.3</ele>
        <time>2019-10-27T12:41:11Z</time>
      </trkpt>
      <trkpt lat="43.49539" lon="6.22535">
        <ele>145.3</ele>
        <time>2019-10-27T12:41:18Z</time>
      </trkpt>
      <trkpt lat="43.49545" lon="6.22525">
        <ele>145.3</ele>
        <time>2019-10-27T12:41:24Z</time>
      </trkpt>
      <trkpt lat="43.4955" lon="6.22514">
        <ele>145.3</ele>
        <time>2019-10-27T12:41:30Z</time>
      </trkpt>
      <trkpt lat="43.49557" lon="6.22505">
        <ele>145.6</ele>
        <time>2019-10-27T12:41:40Z</time>
      </trkpt>
      <trkpt lat="43.49563" lon="6.22496">
        <ele>145.7</ele>
        <time>2019-10-27T12:41:47Z</time>
      </trkpt>
      <trkpt lat="43.49569" lon="6.22487">
        <ele>145.9</ele>
        <time>2019-10-27T12:41:56Z</time>
      </trkpt>
      <trkpt lat="43.49577" lon="6.22476">
        <ele>146.3</ele>
        <time>2019-10-27T12:42:08Z</time>
      </trkpt>
      <trkpt lat="43.49585" lon="6.22471">
        <ele>146.8</ele>
        <time>2019-10-27T12:42:16Z</time>
      </trkpt>
      <trkpt lat="43.49595" lon="6.22468">
        <ele>147.7</ele>
        <time>2019-10-27T12:42:30Z</time>
      </trkpt>
      <trkpt lat="43.49601" lon="6.22478">
        <ele>147.9</ele>
        <time>2019-10-27T12:42:41Z</time>
      </trkpt>
      <trkpt lat="43.4961" lon="6.22482">
        <ele>147.9</ele>
        <time>2019-10-27T12:42:50Z</time>
      </trkpt>
      <trkpt lat="43.49619" lon="6.22488">
        <ele>147.8</ele>
        <time>2019-10-27T12:43:00Z</time>
      </trkpt>
      <trkpt lat="43.49627" lon="6.22495">
        <ele>148</ele>
        <time>2019-10-27T12:43:08Z</time>
      </trkpt>
      <trkpt lat="43.49637" lon="6.22498">
        <ele>148.2</ele>
        <time>2019-10-27T12:43:19Z</time>
      </trkpt>
      <trkpt lat="43.49645" lon="6.22506">
        <ele>148.4</ele>
        <time>2019-10-27T12:43:25Z</time>
      </trkpt>
      <trkpt lat="43.49653" lon="6.22514">
        <ele>148.8</ele>
        <time>2019-10-27T12:43:35Z</time>
      </trkpt>
      <trkpt lat="43.49661" lon="6.2252">
        <ele>149</ele>
        <time>2019-10-27T12:43:43Z</time>
      </trkpt>
      <trkpt lat="43.49669" lon="6.22526">
        <ele>148.9</ele>
        <time>2019-10-27T12:43:51Z</time>
      </trkpt>
      <trkpt lat="43.49678" lon="6.22528">
        <ele>149</ele>
        <time>2019-10-27T12:43:59Z</time>
      </trkpt>
      <trkpt lat="43.49687" lon="6.22534">
        <ele>149.1</ele>
        <time>2019-10-27T12:44:08Z</time>
      </trkpt>
      <trkpt lat="43.49696" lon="6.2254">
        <ele>148.9</ele>
        <time>2019-10-27T12:44:15Z</time>
      </trkpt>
      <trkpt lat="43.49706" lon="6.22544">
        <ele>148.6</ele>
        <time>2019-10-27T12:44:22Z</time>
      </trkpt>
      <trkpt lat="43.49713" lon="6.22551">
        <ele>148.1</ele>
        <time>2019-10-27T12:44:33Z</time>
      </trkpt>
      <trkpt lat="43.49722" lon="6.22548">
        <ele>147.8</ele>
        <time>2019-10-27T12:44:43Z</time>
      </trkpt>
      <trkpt lat="43.49729" lon="6.2254">
        <ele>147.1</ele>
        <time>2019-10-27T12:44:54Z</time>
      </trkpt>
      <trkpt lat="43.49736" lon="6.22531">
        <ele>145.2</ele>
        <time>2019-10-27T12:45:25Z</time>
      </trkpt>
      <trkpt lat="43.49739" lon="6.22518">
        <ele>144.5</ele>
        <time>2019-10-27T12:45:42Z</time>
      </trkpt>
      <trkpt lat="43.49742" lon="6.22505">
        <ele>144</ele>
        <time>2019-10-27T12:45:51Z</time>
      </trkpt>
      <trkpt lat="43.49744" lon="6.22493">
        <ele>143.5</ele>
        <time>2019-10-27T12:46:00Z</time>
      </trkpt>
      <trkpt lat="43.49753" lon="6.22486">
        <ele>142.8</ele>
        <time>2019-10-27T12:46:51Z</time>
      </trkpt>
      <trkpt lat="43.49763" lon="6.22483">
        <ele>142.3</ele>
        <time>2019-10-27T12:47:01Z</time>
      </trkpt>
      <trkpt lat="43.49772" lon="6.2248">
        <ele>142</ele>
        <time>2019-10-27T12:47:10Z</time>
      </trkpt>
      <trkpt lat="43.49781" lon="6.22481">
        <ele>141.9</ele>
        <time>2019-10-27T12:47:18Z</time>
      </trkpt>
      <trkpt lat="43.49791" lon="6.22481">
        <ele>141.7</ele>
        <time>2019-10-27T12:47:40Z</time>
      </trkpt>
      <trkpt lat="43.49801" lon="6.22481">
        <ele>141.7</ele>
        <time>2019-10-27T12:47:56Z</time>
      </trkpt>
      <trkpt lat="43.4981" lon="6.22483">
        <ele>141.7</ele>
        <time>2019-10-27T12:48:05Z</time>
      </trkpt>
      <trkpt lat="43.49819" lon="6.22489">
        <ele>141.7</ele>
        <time>2019-10-27T12:48:12Z</time>
      </trkpt>
      <trkpt lat="43.49825" lon="6.22498">
        <ele>141.7</ele>
        <time>2019-10-27T12:48:22Z</time>
      </trkpt>
      <trkpt lat="43.4983" lon="6.22509">
        <ele>142.4</ele>
        <time>2019-10-27T12:48:58Z</time>
      </trkpt>
      <trkpt lat="43.49824" lon="6.22498">
        <ele>142.4</ele>
        <time>2019-10-27T12:49:13Z</time>
      </trkpt>
      <trkpt lat="43.49833" lon="6.22503">
        <ele>142.3</ele>
        <time>2019-10-27T12:50:15Z</time>
      </trkpt>
      <trkpt lat="43.49842" lon="6.22498">
        <ele>142.3</ele>
        <time>2019-10-27T12:50:38Z</time>
      </trkpt>
      <trkpt lat="43.49846" lon="6.22486">
        <ele>142.6</ele>
        <time>2019-10-27T12:50:48Z</time>
      </trkpt>
      <trkpt lat="43.49853" lon="6.22478">
        <ele>142.6</ele>
        <time>2019-10-27T12:50:57Z</time>
      </trkpt>
      <trkpt lat="43.49859" lon="6.22488">
        <ele>142.5</ele>
        <time>2019-10-27T12:51:05Z</time>
      </trkpt>
      <trkpt lat="43.49863" lon="6.22499">
        <ele>142</ele>
        <time>2019-10-27T12:51:22Z</time>
      </trkpt>
      <trkpt lat="43.4987" lon="6.22507">
        <ele>141.9</ele>
        <time>2019-10-27T12:51:30Z</time>
      </trkpt>
      <trkpt lat="43.49879" lon="6.22504">
        <ele>142.1</ele>
        <time>2019-10-27T12:51:43Z</time>
      </trkpt>
      <trkpt lat="43.49886" lon="6.22513">
        <ele>142</ele>
        <time>2019-10-27T12:52:04Z</time>
      </trkpt>
      <trkpt lat="43.49891" lon="6.22525">
        <ele>141.8</ele>
        <time>2019-10-27T12:52:15Z</time>
      </trkpt>
      <trkpt lat="43.49895" lon="6.22538">
        <ele>141.6</ele>
        <time>2019-10-27T12:52:26Z</time>
      </trkpt>
      <trkpt lat="43.49903" lon="6.22546">
        <ele>141.4</ele>
        <time>2019-10-27T12:52:36Z</time>
      </trkpt>
      <trkpt lat="43.49912" lon="6.22544">
        <ele>141.2</ele>
        <time>2019-10-27T12:52:45Z</time>
      </trkpt>
      <trkpt lat="43.49913" lon="6.22557">
        <ele>141.2</ele>
        <time>2019-10-27T12:53:07Z</time>
      </trkpt>
      <trkpt lat="43.49916" lon="6.2257">
        <ele>141.4</ele>
        <time>2019-10-27T12:53:16Z</time>
      </trkpt>
      <trkpt lat="43.49922" lon="6.22579">
        <ele>141.4</ele>
        <time>2019-10-27T12:53:26Z</time>
      </trkpt>
      <trkpt lat="43.4993" lon="6.22586">
        <ele>141.4</ele>
        <time>2019-10-27T12:53:34Z</time>
      </trkpt>
      <trkpt lat="43.49937" lon="6.22595">
        <ele>141.3</ele>
        <time>2019-10-27T12:53:45Z</time>
      </trkpt>
      <trkpt lat="43.49944" lon="6.22603">
        <ele>141.2</ele>
        <time>2019-10-27T12:53:53Z</time>
      </trkpt>
      <trkpt lat="43.49952" lon="6.22611">
        <ele>141.1</ele>
        <time>2019-10-27T12:54:03Z</time>
      </trkpt>
      <trkpt lat="43.49957" lon="6.22621">
        <ele>141</ele>
        <time>2019-10-27T12:54:11Z</time>
      </trkpt>
      <trkpt lat="43.49964" lon="6.2263">
        <ele>141</ele>
        <time>2019-10-27T12:54:23Z</time>
      </trkpt>
      <trkpt lat="43.4997" lon="6.2264">
        <ele>140.9</ele>
        <time>2019-10-27T12:54:31Z</time>
      </trkpt>
      <trkpt lat="43.49979" lon="6.22646">
        <ele>140.6</ele>
        <time>2019-10-27T12:54:39Z</time>
      </trkpt>
      <trkpt lat="43.49987" lon="6.22652">
        <ele>140.5</ele>
        <time>2019-10-27T12:54:47Z</time>
      </trkpt>
      <trkpt lat="43.49996" lon="6.22659">
        <ele>140.4</ele>
        <time>2019-10-27T12:54:56Z</time>
      </trkpt>
      <trkpt lat="43.50004" lon="6.22665">
        <ele>140.3</ele>
        <time>2019-10-27T12:55:05Z</time>
      </trkpt>
      <trkpt lat="43.50012" lon="6.22671">
        <ele>140.2</ele>
        <time>2019-10-27T12:55:14Z</time>
      </trkpt>
      <trkpt lat="43.50021" lon="6.22675">
        <ele>140</ele>
        <time>2019-10-27T12:55:23Z</time>
      </trkpt>
      <trkpt lat="43.50031" lon="6.22681">
        <ele>140</ele>
        <time>2019-10-27T12:55:34Z</time>
      </trkpt>
      <trkpt lat="43.5004" lon="6.22685">
        <ele>139.9</ele>
        <time>2019-10-27T12:55:43Z</time>
      </trkpt>
      <trkpt lat="43.50048" lon="6.22691">
        <ele>140</ele>
        <time>2019-10-27T12:55:52Z</time>
      </trkpt>
      <trkpt lat="43.50057" lon="6.22696">
        <ele>140</ele>
        <time>2019-10-27T12:55:59Z</time>
      </trkpt>
      <trkpt lat="43.50067" lon="6.22698">
        <ele>139.9</ele>
        <time>2019-10-27T12:56:09Z</time>
      </trkpt>
      <trkpt lat="43.50075" lon="6.22704">
        <ele>140</ele>
        <time>2019-10-27T12:56:23Z</time>
      </trkpt>
      <trkpt lat="43.50084" lon="6.2271">
        <ele>139.9</ele>
        <time>2019-10-27T12:56:53Z</time>
      </trkpt>
      <trkpt lat="43.50091" lon="6.22719">
        <ele>139.6</ele>
        <time>2019-10-27T12:57:07Z</time>
      </trkpt>
      <trkpt lat="43.501" lon="6.22724">
        <ele>139.5</ele>
        <time>2019-10-27T12:57:15Z</time>
      </trkpt>
      <trkpt lat="43.50105" lon="6.22735">
        <ele>139.6</ele>
        <time>2019-10-27T12:57:27Z</time>
      </trkpt>
      <trkpt lat="43.50108" lon="6.22747">
        <ele>139.6</ele>
        <time>2019-10-27T12:57:36Z</time>
      </trkpt>
      <trkpt lat="43.50111" lon="6.2276">
        <ele>139.6</ele>
        <time>2019-10-27T12:57:45Z</time>
      </trkpt>
      <trkpt lat="43.50115" lon="6.22772">
        <ele>139.6</ele>
        <time>2019-10-27T12:57:54Z</time>
      </trkpt>
      <trkpt lat="43.50119" lon="6.22783">
        <ele>139.7</ele>
        <time>2019-10-27T12:58:10Z</time>
      </trkpt>
      <trkpt lat="43.50124" lon="6.22794">
        <ele>139.7</ele>
        <time>2019-10-27T12:58:24Z</time>
      </trkpt>
      <trkpt lat="43.50123" lon="6.22807">
        <ele>139.5</ele>
        <time>2019-10-27T12:58:37Z</time>
      </trkpt>
      <trkpt lat="43.50122" lon="6.2282">
        <ele>139.3</ele>
        <time>2019-10-27T12:58:47Z</time>
      </trkpt>
      <trkpt lat="43.50119" lon="6.22833">
        <ele>139</ele>
        <time>2019-10-27T12:58:57Z</time>
      </trkpt>
      <trkpt lat="43.50117" lon="6.22845">
        <ele>138.9</ele>
        <time>2019-10-27T12:59:52Z</time>
      </trkpt>
      <trkpt lat="43.50113" lon="6.22856">
        <ele>137</ele>
        <time>2019-10-27T13:02:23Z</time>
      </trkpt>
      <trkpt lat="43.50105" lon="6.22864">
        <ele>136.9</ele>
        <time>2019-10-27T13:02:35Z</time>
      </trkpt>
      <trkpt lat="43.501" lon="6.22875">
        <ele>137</ele>
        <time>2019-10-27T13:02:44Z</time>
      </trkpt>
      <trkpt lat="43.50097" lon="6.22887">
        <ele>137.1</ele>
        <time>2019-10-27T13:02:54Z</time>
      </trkpt>
      <trkpt lat="43.50095" lon="6.229">
        <ele>137.2</ele>
        <time>2019-10-27T13:03:04Z</time>
      </trkpt>
      <trkpt lat="43.50092" lon="6.22913">
        <ele>137.1</ele>
        <time>2019-10-27T13:03:15Z</time>
      </trkpt>
      <trkpt lat="43.50089" lon="6.22925">
        <ele>137.2</ele>
        <time>2019-10-27T13:03:28Z</time>
      </trkpt>
      <trkpt lat="43.50086" lon="6.22938">
        <ele>137.8</ele>
        <time>2019-10-27T13:03:41Z</time>
      </trkpt>
      <trkpt lat="43.50083" lon="6.22951">
        <ele>138.7</ele>
        <time>2019-10-27T13:03:53Z</time>
      </trkpt>
      <trkpt lat="43.50081" lon="6.22963">
        <ele>139.2</ele>
        <time>2019-10-27T13:04:05Z</time>
      </trkpt>
      <trkpt lat="43.50078" lon="6.22976">
        <ele>140.1</ele>
        <time>2019-10-27T13:04:26Z</time>
      </trkpt>
      <trkpt lat="43.50077" lon="6.22989">
        <ele>141</ele>
        <time>2019-10-27T13:04:39Z</time>
      </trkpt>
      <trkpt lat="43.50081" lon="6.23">
        <ele>142.3</ele>
        <time>2019-10-27T13:04:54Z</time>
      </trkpt>
      <trkpt lat="43.50089" lon="6.23006">
        <ele>143.4</ele>
        <time>2019-10-27T13:05:39Z</time>
      </trkpt>
      <trkpt lat="43.50098" lon="6.23011">
        <ele>143.7</ele>
        <time>2019-10-27T13:05:50Z</time>
      </trkpt>
      <trkpt lat="43.50107" lon="6.23012">
        <ele>144</ele>
        <time>2019-10-27T13:06:03Z</time>
      </trkpt>
      <trkpt lat="43.50117" lon="6.23014">
        <ele>144.1</ele>
        <time>2019-10-27T13:06:13Z</time>
      </trkpt>
      <trkpt lat="43.50124" lon="6.23023">
        <ele>143.6</ele>
        <time>2019-10-27T13:06:22Z</time>
      </trkpt>
      <trkpt lat="43.50132" lon="6.23029">
        <ele>143.2</ele>
        <time>2019-10-27T13:06:31Z</time>
      </trkpt>
      <trkpt lat="43.5014" lon="6.23034">
        <ele>143</ele>
        <time>2019-10-27T13:06:42Z</time>
      </trkpt>
      <trkpt lat="43.50148" lon="6.2304">
        <ele>143.1</ele>
        <time>2019-10-27T13:06:54Z</time>
      </trkpt>
      <trkpt lat="43.50155" lon="6.23049">
        <ele>143</ele>
        <time>2019-10-27T13:07:05Z</time>
      </trkpt>
      <trkpt lat="43.50164" lon="6.23056">
        <ele>143</ele>
        <time>2019-10-27T13:07:13Z</time>
      </trkpt>
      <trkpt lat="43.5017" lon="6.23066">
        <ele>143</ele>
        <time>2019-10-27T13:07:23Z</time>
      </trkpt>
      <trkpt lat="43.50178" lon="6.23074">
        <ele>142.9</ele>
        <time>2019-10-27T13:07:33Z</time>
      </trkpt>
      <trkpt lat="43.50187" lon="6.23078">
        <ele>142.9</ele>
        <time>2019-10-27T13:07:40Z</time>
      </trkpt>
      <trkpt lat="43.50194" lon="6.23088">
        <ele>143</ele>
        <time>2019-10-27T13:07:47Z</time>
      </trkpt>
      <trkpt lat="43.502" lon="6.23099">
        <ele>143</ele>
        <time>2019-10-27T13:07:57Z</time>
      </trkpt>
      <trkpt lat="43.50208" lon="6.23105">
        <ele>143</ele>
        <time>2019-10-27T13:08:07Z</time>
      </trkpt>
      <trkpt lat="43.50217" lon="6.23111">
        <ele>142.7</ele>
        <time>2019-10-27T13:08:15Z</time>
      </trkpt>
      <trkpt lat="43.50225" lon="6.23117">
        <ele>142.5</ele>
        <time>2019-10-27T13:08:22Z</time>
      </trkpt>
      <trkpt lat="43.50234" lon="6.23122">
        <ele>142.5</ele>
        <time>2019-10-27T13:08:31Z</time>
      </trkpt>
      <trkpt lat="43.50242" lon="6.23129">
        <ele>142.5</ele>
        <time>2019-10-27T13:08:42Z</time>
      </trkpt>
      <trkpt lat="43.50249" lon="6.23137">
        <ele>142.5</ele>
        <time>2019-10-27T13:08:54Z</time>
      </trkpt>
      <trkpt lat="43.50258" lon="6.23142">
        <ele>142.4</ele>
        <time>2019-10-27T13:09:07Z</time>
      </trkpt>
      <trkpt lat="43.50267" lon="6.23146">
        <ele>142.4</ele>
        <time>2019-10-27T13:09:15Z</time>
      </trkpt>
      <trkpt lat="43.50277" lon="6.23147">
        <ele>142.6</ele>
        <time>2019-10-27T13:09:24Z</time>
      </trkpt>
      <trkpt lat="43.50287" lon="6.23145">
        <ele>142.8</ele>
        <time>2019-10-27T13:09:31Z</time>
      </trkpt>
      <trkpt lat="43.50296" lon="6.23143">
        <ele>142.8</ele>
        <time>2019-10-27T13:09:39Z</time>
      </trkpt>
      <trkpt lat="43.50305" lon="6.23143">
        <ele>142.8</ele>
        <time>2019-10-27T13:09:48Z</time>
      </trkpt>
      <trkpt lat="43.50314" lon="6.2315">
        <ele>142.7</ele>
        <time>2019-10-27T13:09:59Z</time>
      </trkpt>
      <trkpt lat="43.50323" lon="6.23155">
        <ele>143</ele>
        <time>2019-10-27T13:10:11Z</time>
      </trkpt>
      <trkpt lat="43.50333" lon="6.23161">
        <ele>143.3</ele>
        <time>2019-10-27T13:10:20Z</time>
      </trkpt>
      <trkpt lat="43.50341" lon="6.23166">
        <ele>143.4</ele>
        <time>2019-10-27T13:10:27Z</time>
      </trkpt>
      <trkpt lat="43.50351" lon="6.23166">
        <ele>143.5</ele>
        <time>2019-10-27T13:10:36Z</time>
      </trkpt>
      <trkpt lat="43.50361" lon="6.23168">
        <ele>143.5</ele>
        <time>2019-10-27T13:10:46Z</time>
      </trkpt>
      <trkpt lat="43.5037" lon="6.23169">
        <ele>143.2</ele>
        <time>2019-10-27T13:10:56Z</time>
      </trkpt>
      <trkpt lat="43.50378" lon="6.23173">
        <ele>141.6</ele>
        <time>2019-10-27T13:11:29Z</time>
      </trkpt>
      <trkpt lat="43.50386" lon="6.23182">
        <ele>140.5</ele>
        <time>2019-10-27T13:11:48Z</time>
      </trkpt>
      <trkpt lat="43.50393" lon="6.23189">
        <ele>139.1</ele>
        <time>2019-10-27T13:12:07Z</time>
      </trkpt>
      <trkpt lat="43.50391" lon="6.23202">
        <ele>138.4</ele>
        <time>2019-10-27T13:12:29Z</time>
      </trkpt>
      <trkpt lat="43.50383" lon="6.23209">
        <ele>139.3</ele>
        <time>2019-10-27T13:12:51Z</time>
      </trkpt>
      <trkpt lat="43.50379" lon="6.2322">
        <ele>140.2</ele>
        <time>2019-10-27T13:13:16Z</time>
      </trkpt>
      <trkpt lat="43.50377" lon="6.23234">
        <ele>141.7</ele>
        <time>2019-10-27T13:13:48Z</time>
      </trkpt>
      <trkpt lat="43.50379" lon="6.23247">
        <ele>142.8</ele>
        <time>2019-10-27T13:13:59Z</time>
      </trkpt>
      <trkpt lat="43.50373" lon="6.23257">
        <ele>143.8</ele>
        <time>2019-10-27T13:14:18Z</time>
      </trkpt>
      <trkpt lat="43.5037" lon="6.2327">
        <ele>144.5</ele>
        <time>2019-10-27T13:14:30Z</time>
      </trkpt>
      <trkpt lat="43.50368" lon="6.23283">
        <ele>145</ele>
        <time>2019-10-27T13:14:39Z</time>
      </trkpt>
      <trkpt lat="43.50363" lon="6.23293">
        <ele>145.6</ele>
        <time>2019-10-27T13:14:51Z</time>
      </trkpt>
      <trkpt lat="43.50364" lon="6.23307">
        <ele>146.3</ele>
        <time>2019-10-27T13:15:03Z</time>
      </trkpt>
      <trkpt lat="43.50364" lon="6.23319">
        <ele>146.8</ele>
        <time>2019-10-27T13:15:12Z</time>
      </trkpt>
      <trkpt lat="43.50364" lon="6.23332">
        <ele>147.7</ele>
        <time>2019-10-27T13:15:23Z</time>
      </trkpt>
      <trkpt lat="43.50362" lon="6.23345">
        <ele>148.3</ele>
        <time>2019-10-27T13:15:36Z</time>
      </trkpt>
      <trkpt lat="43.50361" lon="6.23358">
        <ele>148.6</ele>
        <time>2019-10-27T13:15:48Z</time>
      </trkpt>
      <trkpt lat="43.50362" lon="6.23371">
        <ele>149.3</ele>
        <time>2019-10-27T13:16:02Z</time>
      </trkpt>
      <trkpt lat="43.50361" lon="6.23383">
        <ele>150.2</ele>
        <time>2019-10-27T13:16:34Z</time>
      </trkpt>
      <trkpt lat="43.50362" lon="6.23396">
        <ele>151</ele>
        <time>2019-10-27T13:16:47Z</time>
      </trkpt>
      <trkpt lat="43.50363" lon="6.2341">
        <ele>151.9</ele>
        <time>2019-10-27T13:17:00Z</time>
      </trkpt>
      <trkpt lat="43.50363" lon="6.23422">
        <ele>152.7</ele>
        <time>2019-10-27T13:17:11Z</time>
      </trkpt>
      <trkpt lat="43.50361" lon="6.23435">
        <ele>153.7</ele>
        <time>2019-10-27T13:17:24Z</time>
      </trkpt>
      <trkpt lat="43.50359" lon="6.23447">
        <ele>155.1</ele>
        <time>2019-10-27T13:17:38Z</time>
      </trkpt>
      <trkpt lat="43.50357" lon="6.23459">
        <ele>156.1</ele>
        <time>2019-10-27T13:17:50Z</time>
      </trkpt>
      <trkpt lat="43.50355" lon="6.23471">
        <ele>157</ele>
        <time>2019-10-27T13:18:10Z</time>
      </trkpt>
      <trkpt lat="43.50347" lon="6.23479">
        <ele>157.5</ele>
        <time>2019-10-27T13:18:25Z</time>
      </trkpt>
      <trkpt lat="43.50341" lon="6.23488">
        <ele>158.1</ele>
        <time>2019-10-27T13:18:38Z</time>
      </trkpt>
      <trkpt lat="43.50331" lon="6.23487">
        <ele>158.9</ele>
        <time>2019-10-27T13:18:51Z</time>
      </trkpt>
      <trkpt lat="43.50323" lon="6.23494">
        <ele>159.5</ele>
        <time>2019-10-27T13:19:28Z</time>
      </trkpt>
      <trkpt lat="43.50317" lon="6.23504">
        <ele>160.2</ele>
        <time>2019-10-27T13:20:20Z</time>
      </trkpt>
      <trkpt lat="43.50308" lon="6.23508">
        <ele>160.3</ele>
        <time>2019-10-27T13:20:32Z</time>
      </trkpt>
      <trkpt lat="43.50301" lon="6.23516">
        <ele>160.7</ele>
        <time>2019-10-27T13:20:42Z</time>
      </trkpt>
      <trkpt lat="43.50294" lon="6.23524">
        <ele>160.9</ele>
        <time>2019-10-27T13:20:55Z</time>
      </trkpt>
      <trkpt lat="43.50285" lon="6.23529">
        <ele>161</ele>
        <time>2019-10-27T13:21:06Z</time>
      </trkpt>
      <trkpt lat="43.50276" lon="6.23533">
        <ele>161.4</ele>
        <time>2019-10-27T13:21:17Z</time>
      </trkpt>
      <trkpt lat="43.5028" lon="6.23545">
        <ele>163</ele>
        <time>2019-10-27T13:21:57Z</time>
      </trkpt>
      <trkpt lat="43.50275" lon="6.23555">
        <ele>163.7</ele>
        <time>2019-10-27T13:22:46Z</time>
      </trkpt>
      <trkpt lat="43.50266" lon="6.23551">
        <ele>163.8</ele>
        <time>2019-10-27T13:23:08Z</time>
      </trkpt>
      <trkpt lat="43.50259" lon="6.23559">
        <ele>164.5</ele>
        <time>2019-10-27T13:24:11Z</time>
      </trkpt>
      <trkpt lat="43.50258" lon="6.23572">
        <ele>164.4</ele>
        <time>2019-10-27T13:24:22Z</time>
      </trkpt>
      <trkpt lat="43.50258" lon="6.23585">
        <ele>164.3</ele>
        <time>2019-10-27T13:24:35Z</time>
      </trkpt>
      <trkpt lat="43.50257" lon="6.23599">
        <ele>163.9</ele>
        <time>2019-10-27T13:24:46Z</time>
      </trkpt>
      <trkpt lat="43.50254" lon="6.23611">
        <ele>164</ele>
        <time>2019-10-27T13:24:56Z</time>
      </trkpt>
      <trkpt lat="43.50254" lon="6.23625">
        <ele>164</ele>
        <time>2019-10-27T13:25:06Z</time>
      </trkpt>
      <trkpt lat="43.50256" lon="6.23638">
        <ele>164.1</ele>
        <time>2019-10-27T13:25:17Z</time>
      </trkpt>
      <trkpt lat="43.50251" lon="6.2365">
        <ele>164.2</ele>
        <time>2019-10-27T13:25:29Z</time>
      </trkpt>
      <trkpt lat="43.5025" lon="6.23663">
        <ele>164.4</ele>
        <time>2019-10-27T13:25:38Z</time>
      </trkpt>
      <trkpt lat="43.5025" lon="6.23676">
        <ele>164.7</ele>
        <time>2019-10-27T13:25:50Z</time>
      </trkpt>
      <trkpt lat="43.50254" lon="6.23687">
        <ele>164.6</ele>
        <time>2019-10-27T13:26:05Z</time>
      </trkpt>
      <trkpt lat="43.5026" lon="6.23699">
        <ele>163.7</ele>
        <time>2019-10-27T13:26:16Z</time>
      </trkpt>
      <trkpt lat="43.50265" lon="6.2371">
        <ele>162.4</ele>
        <time>2019-10-27T13:26:28Z</time>
      </trkpt>
      <trkpt lat="43.50272" lon="6.23716">
        <ele>161</ele>
        <time>2019-10-27T13:26:37Z</time>
      </trkpt>
      <trkpt lat="43.50282" lon="6.23721">
        <ele>159.4</ele>
        <time>2019-10-27T13:26:47Z</time>
      </trkpt>
      <trkpt lat="43.5029" lon="6.23725">
        <ele>158.6</ele>
        <time>2019-10-27T13:26:55Z</time>
      </trkpt>
      <trkpt lat="43.50298" lon="6.23731">
        <ele>157.7</ele>
        <time>2019-10-27T13:27:11Z</time>
      </trkpt>
      <trkpt lat="43.50308" lon="6.23731">
        <ele>157</ele>
        <time>2019-10-27T13:27:26Z</time>
      </trkpt>
      <trkpt lat="43.50315" lon="6.23739">
        <ele>157</ele>
        <time>2019-10-27T13:27:50Z</time>
      </trkpt>
      <trkpt lat="43.50315" lon="6.23753">
        <ele>156.2</ele>
        <time>2019-10-27T13:28:18Z</time>
      </trkpt>
      <trkpt lat="43.50312" lon="6.23766">
        <ele>155.7</ele>
        <time>2019-10-27T13:28:27Z</time>
      </trkpt>
      <trkpt lat="43.50312" lon="6.23779">
        <ele>155.4</ele>
        <time>2019-10-27T13:28:35Z</time>
      </trkpt>
      <trkpt lat="43.5032" lon="6.23787">
        <ele>155.3</ele>
        <time>2019-10-27T13:28:43Z</time>
      </trkpt>
      <trkpt lat="43.50329" lon="6.23792">
        <ele>155</ele>
        <time>2019-10-27T13:28:53Z</time>
      </trkpt>
      <trkpt lat="43.50338" lon="6.23796">
        <ele>154.8</ele>
        <time>2019-10-27T13:29:03Z</time>
      </trkpt>
      <trkpt lat="43.50346" lon="6.23802">
        <ele>154.7</ele>
        <time>2019-10-27T13:29:12Z</time>
      </trkpt>
      <trkpt lat="43.50355" lon="6.23802">
        <ele>154.6</ele>
        <time>2019-10-27T13:29:20Z</time>
      </trkpt>
      <trkpt lat="43.50364" lon="6.23804">
        <ele>154.6</ele>
        <time>2019-10-27T13:29:30Z</time>
      </trkpt>
      <trkpt lat="43.50373" lon="6.23808">
        <ele>154.9</ele>
        <time>2019-10-27T13:29:40Z</time>
      </trkpt>
      <trkpt lat="43.50382" lon="6.23803">
        <ele>155.3</ele>
        <time>2019-10-27T13:29:49Z</time>
      </trkpt>
      <trkpt lat="43.50385" lon="6.23791">
        <ele>155.6</ele>
        <time>2019-10-27T13:29:57Z</time>
      </trkpt>
      <trkpt lat="43.50387" lon="6.23778">
        <ele>155.8</ele>
        <time>2019-10-27T13:30:07Z</time>
      </trkpt>
      <trkpt lat="43.5039" lon="6.23765">
        <ele>155.9</ele>
        <time>2019-10-27T13:30:14Z</time>
      </trkpt>
      <trkpt lat="43.50392" lon="6.23753">
        <ele>155.9</ele>
        <time>2019-10-27T13:30:21Z</time>
      </trkpt>
      <trkpt lat="43.50393" lon="6.2374">
        <ele>155.8</ele>
        <time>2019-10-27T13:30:29Z</time>
      </trkpt>
      <trkpt lat="43.50394" lon="6.23728">
        <ele>155.6</ele>
        <time>2019-10-27T13:30:38Z</time>
      </trkpt>
      <trkpt lat="43.50397" lon="6.23715">
        <ele>155.7</ele>
        <time>2019-10-27T13:30:49Z</time>
      </trkpt>
      <trkpt lat="43.50401" lon="6.23704">
        <ele>156.2</ele>
        <time>2019-10-27T13:30:58Z</time>
      </trkpt>
      <trkpt lat="43.50404" lon="6.23691">
        <ele>156.9</ele>
        <time>2019-10-27T13:31:09Z</time>
      </trkpt>
      <trkpt lat="43.50409" lon="6.2368">
        <ele>157.4</ele>
        <time>2019-10-27T13:31:18Z</time>
      </trkpt>
      <trkpt lat="43.50404" lon="6.23691">
        <ele>158.4</ele>
        <time>2019-10-27T13:31:49Z</time>
      </trkpt>
      <trkpt lat="43.50402" lon="6.23704">
        <ele>159.3</ele>
        <time>2019-10-27T13:32:03Z</time>
      </trkpt>
      <trkpt lat="43.50402" lon="6.23717">
        <ele>160</ele>
        <time>2019-10-27T13:32:12Z</time>
      </trkpt>
      <trkpt lat="43.50403" lon="6.23731">
        <ele>160.6</ele>
        <time>2019-10-27T13:32:20Z</time>
      </trkpt>
      <trkpt lat="43.50407" lon="6.23744">
        <ele>161.1</ele>
        <time>2019-10-27T13:32:29Z</time>
      </trkpt>
      <trkpt lat="43.5041" lon="6.23756">
        <ele>161.8</ele>
        <time>2019-10-27T13:32:38Z</time>
      </trkpt>
      <trkpt lat="43.50412" lon="6.23769">
        <ele>162.1</ele>
        <time>2019-10-27T13:32:53Z</time>
      </trkpt>
      <trkpt lat="43.50418" lon="6.23778">
        <ele>162.3</ele>
        <time>2019-10-27T13:33:23Z</time>
      </trkpt>
      <trkpt lat="43.50427" lon="6.23781">
        <ele>162.2</ele>
        <time>2019-10-27T13:33:39Z</time>
      </trkpt>
      <trkpt lat="43.50436" lon="6.23784">
        <ele>162.4</ele>
        <time>2019-10-27T13:34:02Z</time>
      </trkpt>
      <trkpt lat="43.50444" lon="6.23792">
        <ele>161.8</ele>
        <time>2019-10-27T13:34:15Z</time>
      </trkpt>
      <trkpt lat="43.50452" lon="6.23799">
        <ele>160.4</ele>
        <time>2019-10-27T13:34:29Z</time>
      </trkpt>
      <trkpt lat="43.50461" lon="6.238">
        <ele>159.4</ele>
        <time>2019-10-27T13:34:38Z</time>
      </trkpt>
      <trkpt lat="43.50471" lon="6.238">
        <ele>158.6</ele>
        <time>2019-10-27T13:34:46Z</time>
      </trkpt>
      <trkpt lat="43.50481" lon="6.23805">
        <ele>157.6</ele>
        <time>2019-10-27T13:34:56Z</time>
      </trkpt>
      <trkpt lat="43.50491" lon="6.23805">
        <ele>156.9</ele>
        <time>2019-10-27T13:35:04Z</time>
      </trkpt>
      <trkpt lat="43.505" lon="6.23808">
        <ele>156.5</ele>
        <time>2019-10-27T13:35:13Z</time>
      </trkpt>
      <trkpt lat="43.5051" lon="6.23811">
        <ele>156.4</ele>
        <time>2019-10-27T13:35:25Z</time>
      </trkpt>
      <trkpt lat="43.50517" lon="6.23802">
        <ele>156.1</ele>
        <time>2019-10-27T13:35:33Z</time>
      </trkpt>
      <trkpt lat="43.50524" lon="6.23794">
        <ele>156</ele>
        <time>2019-10-27T13:35:39Z</time>
      </trkpt>
      <trkpt lat="43.5053" lon="6.23784">
        <ele>155.8</ele>
        <time>2019-10-27T13:35:46Z</time>
      </trkpt>
      <trkpt lat="43.50537" lon="6.23775">
        <ele>155.7</ele>
        <time>2019-10-27T13:35:54Z</time>
      </trkpt>
      <trkpt lat="43.50541" lon="6.23764">
        <ele>155.6</ele>
        <time>2019-10-27T13:36:04Z</time>
      </trkpt>
      <trkpt lat="43.50547" lon="6.23753">
        <ele>155.7</ele>
        <time>2019-10-27T13:36:13Z</time>
      </trkpt>
      <trkpt lat="43.50554" lon="6.23745">
        <ele>155.8</ele>
        <time>2019-10-27T13:36:22Z</time>
      </trkpt>
      <trkpt lat="43.50544" lon="6.23743">
        <ele>155</ele>
        <time>2019-10-27T13:36:47Z</time>
      </trkpt>
      <trkpt lat="43.50536" lon="6.23749">
        <ele>154.1</ele>
        <time>2019-10-27T13:37:04Z</time>
      </trkpt>
      <trkpt lat="43.50528" lon="6.23752">
        <ele>153.6</ele>
        <time>2019-10-27T13:37:13Z</time>
      </trkpt>
      <trkpt lat="43.50518" lon="6.23755">
        <ele>152.9</ele>
        <time>2019-10-27T13:37:26Z</time>
      </trkpt>
      <trkpt lat="43.50509" lon="6.23754">
        <ele>151.9</ele>
        <time>2019-10-27T13:37:42Z</time>
      </trkpt>
      <trkpt lat="43.50512" lon="6.23742">
        <ele>150.8</ele>
        <time>2019-10-27T13:37:57Z</time>
      </trkpt>
      <trkpt lat="43.50512" lon="6.23729">
        <ele>150.2</ele>
        <time>2019-10-27T13:38:07Z</time>
      </trkpt>
      <trkpt lat="43.50513" lon="6.23717">
        <ele>149.1</ele>
        <time>2019-10-27T13:38:18Z</time>
      </trkpt>
      <trkpt lat="43.50516" lon="6.23704">
        <ele>148.3</ele>
        <time>2019-10-27T13:38:30Z</time>
      </trkpt>
      <trkpt lat="43.50522" lon="6.23696">
        <ele>147.6</ele>
        <time>2019-10-27T13:38:39Z</time>
      </trkpt>
      <trkpt lat="43.50523" lon="6.23682">
        <ele>146.8</ele>
        <time>2019-10-27T13:38:47Z</time>
      </trkpt>
      <trkpt lat="43.50527" lon="6.2367">
        <ele>145.2</ele>
        <time>2019-10-27T13:39:11Z</time>
      </trkpt>
      <trkpt lat="43.50529" lon="6.23657">
        <ele>145</ele>
        <time>2019-10-27T13:39:20Z</time>
      </trkpt>
      <trkpt lat="43.50535" lon="6.23647">
        <ele>143.9</ele>
        <time>2019-10-27T13:39:30Z</time>
      </trkpt>
      <trkpt lat="43.50544" lon="6.23641">
        <ele>141.7</ele>
        <time>2019-10-27T13:40:43Z</time>
      </trkpt>
      <trkpt lat="43.50553" lon="6.23637">
        <ele>141.5</ele>
        <time>2019-10-27T13:40:52Z</time>
      </trkpt>
      <trkpt lat="43.50561" lon="6.23632">
        <ele>141.2</ele>
        <time>2019-10-27T13:41:01Z</time>
      </trkpt>
      <trkpt lat="43.50569" lon="6.23625">
        <ele>140.8</ele>
        <time>2019-10-27T13:41:11Z</time>
      </trkpt>
      <trkpt lat="43.50577" lon="6.23618">
        <ele>140.2</ele>
        <time>2019-10-27T13:41:20Z</time>
      </trkpt>
      <trkpt lat="43.50585" lon="6.23612">
        <ele>139.4</ele>
        <time>2019-10-27T13:41:29Z</time>
      </trkpt>
      <trkpt lat="43.50591" lon="6.23603">
        <ele>138.9</ele>
        <time>2019-10-27T13:41:37Z</time>
      </trkpt>
      <trkpt lat="43.50598" lon="6.23594">
        <ele>138.4</ele>
        <time>2019-10-27T13:41:45Z</time>
      </trkpt>
      <trkpt lat="43.50604" lon="6.23584">
        <ele>137.5</ele>
        <time>2019-10-27T13:41:56Z</time>
      </trkpt>
      <trkpt lat="43.50613" lon="6.23582">
        <ele>136.3</ele>
        <time>2019-10-27T13:42:10Z</time>
      </trkpt>
      <trkpt lat="43.50622" lon="6.23581">
        <ele>135.5</ele>
        <time>2019-10-27T13:42:19Z</time>
      </trkpt>
      <trkpt lat="43.50632" lon="6.2358">
        <ele>134.8</ele>
        <time>2019-10-27T13:42:29Z</time>
      </trkpt>
      <trkpt lat="43.50641" lon="6.23583">
        <ele>134.3</ele>
        <time>2019-10-27T13:42:40Z</time>
      </trkpt>
      <trkpt lat="43.50651" lon="6.23585">
        <ele>134.1</ele>
        <time>2019-10-27T13:42:50Z</time>
      </trkpt>
      <trkpt lat="43.50661" lon="6.23585">
        <ele>134</ele>
        <time>2019-10-27T13:43:00Z</time>
      </trkpt>
      <trkpt lat="43.50669" lon="6.2359">
        <ele>133.6</ele>
        <time>2019-10-27T13:43:09Z</time>
      </trkpt>
      <trkpt lat="43.50678" lon="6.23594">
        <ele>133.5</ele>
        <time>2019-10-27T13:43:18Z</time>
      </trkpt>
      <trkpt lat="43.50687" lon="6.23598">
        <ele>133.4</ele>
        <time>2019-10-27T13:43:26Z</time>
      </trkpt>
      <trkpt lat="43.50697" lon="6.23602">
        <ele>133.7</ele>
        <time>2019-10-27T13:43:37Z</time>
      </trkpt>
      <trkpt lat="43.50705" lon="6.23596">
        <ele>133.7</ele>
        <time>2019-10-27T13:43:49Z</time>
      </trkpt>
      <trkpt lat="43.50711" lon="6.23585">
        <ele>133.8</ele>
        <time>2019-10-27T13:44:01Z</time>
      </trkpt>
      <trkpt lat="43.50718" lon="6.23577">
        <ele>133.7</ele>
        <time>2019-10-27T13:44:11Z</time>
      </trkpt>
      <trkpt lat="43.50724" lon="6.23568">
        <ele>133.4</ele>
        <time>2019-10-27T13:44:20Z</time>
      </trkpt>
      <trkpt lat="43.50731" lon="6.23558">
        <ele>132.8</ele>
        <time>2019-10-27T13:44:33Z</time>
      </trkpt>
      <trkpt lat="43.50741" lon="6.23557">
        <ele>132.6</ele>
        <time>2019-10-27T13:44:41Z</time>
      </trkpt>
      <trkpt lat="43.50751" lon="6.23555">
        <ele>132.5</ele>
        <time>2019-10-27T13:44:52Z</time>
      </trkpt>
      <trkpt lat="43.50761" lon="6.23553">
        <ele>132.4</ele>
        <time>2019-10-27T13:45:02Z</time>
      </trkpt>
      <trkpt lat="43.5077" lon="6.23552">
        <ele>132.4</ele>
        <time>2019-10-27T13:45:13Z</time>
      </trkpt>
      <trkpt lat="43.50779" lon="6.23547">
        <ele>132.3</ele>
        <time>2019-10-27T13:45:23Z</time>
      </trkpt>
      <trkpt lat="43.50788" lon="6.23552">
        <ele>132.3</ele>
        <time>2019-10-27T13:45:29Z</time>
      </trkpt>
      <trkpt lat="43.50797" lon="6.23554">
        <ele>132.4</ele>
        <time>2019-10-27T13:45:39Z</time>
      </trkpt>
      <trkpt lat="43.50807" lon="6.23554">
        <ele>132.5</ele>
        <time>2019-10-27T13:45:49Z</time>
      </trkpt>
      <trkpt lat="43.50815" lon="6.2356">
        <ele>132.3</ele>
        <time>2019-10-27T13:45:58Z</time>
      </trkpt>
      <trkpt lat="43.50824" lon="6.23567">
        <ele>132.3</ele>
        <time>2019-10-27T13:46:06Z</time>
      </trkpt>
      <trkpt lat="43.50833" lon="6.23574">
        <ele>132.4</ele>
        <time>2019-10-27T13:46:14Z</time>
      </trkpt>
      <trkpt lat="43.50842" lon="6.23574">
        <ele>132.6</ele>
        <time>2019-10-27T13:46:21Z</time>
      </trkpt>
      <trkpt lat="43.50851" lon="6.23573">
        <ele>132.7</ele>
        <time>2019-10-27T13:46:29Z</time>
      </trkpt>
      <trkpt lat="43.5086" lon="6.23572">
        <ele>132.8</ele>
        <time>2019-10-27T13:46:39Z</time>
      </trkpt>
      <trkpt lat="43.5087" lon="6.23575">
        <ele>133</ele>
        <time>2019-10-27T13:46:49Z</time>
      </trkpt>
      <trkpt lat="43.50878" lon="6.23582">
        <ele>133.2</ele>
        <time>2019-10-27T13:47:02Z</time>
      </trkpt>
      <trkpt lat="43.50887" lon="6.23585">
        <ele>133.3</ele>
        <time>2019-10-27T13:47:10Z</time>
      </trkpt>
      <trkpt lat="43.50897" lon="6.2358">
        <ele>133.4</ele>
        <time>2019-10-27T13:47:19Z</time>
      </trkpt>
      <trkpt lat="43.50906" lon="6.23579">
        <ele>133.6</ele>
        <time>2019-10-27T13:47:27Z</time>
      </trkpt>
      <trkpt lat="43.50915" lon="6.23582">
        <ele>133.7</ele>
        <time>2019-10-27T13:47:37Z</time>
      </trkpt>
      <trkpt lat="43.50924" lon="6.23585">
        <ele>133.8</ele>
        <time>2019-10-27T13:47:46Z</time>
      </trkpt>
      <trkpt lat="43.50933" lon="6.23585">
        <ele>133.9</ele>
        <time>2019-10-27T13:47:55Z</time>
      </trkpt>
      <trkpt lat="43.50942" lon="6.23584">
        <ele>134.2</ele>
        <time>2019-10-27T13:48:08Z</time>
      </trkpt>
      <trkpt lat="43.50952" lon="6.23587">
        <ele>134.5</ele>
        <time>2019-10-27T13:48:20Z</time>
      </trkpt>
      <trkpt lat="43.50961" lon="6.23591">
        <ele>134.7</ele>
        <time>2019-10-27T13:48:31Z</time>
      </trkpt>
      <trkpt lat="43.5097" lon="6.23593">
        <ele>135</ele>
        <time>2019-10-27T13:48:41Z</time>
      </trkpt>
      <trkpt lat="43.50978" lon="6.23599">
        <ele>135.1</ele>
        <time>2019-10-27T13:48:49Z</time>
      </trkpt>
      <trkpt lat="43.50987" lon="6.23601">
        <ele>135.3</ele>
        <time>2019-10-27T13:48:56Z</time>
      </trkpt>
      <trkpt lat="43.50991" lon="6.23613">
        <ele>135.6</ele>
        <time>2019-10-27T13:49:11Z</time>
      </trkpt>
      <trkpt lat="43.50989" lon="6.23625">
        <ele>136.2</ele>
        <time>2019-10-27T13:49:24Z</time>
      </trkpt>
      <trkpt lat="43.50987" lon="6.23638">
        <ele>136.7</ele>
        <time>2019-10-27T13:49:36Z</time>
      </trkpt>
      <trkpt lat="43.50983" lon="6.2365">
        <ele>137</ele>
        <time>2019-10-27T13:49:46Z</time>
      </trkpt>
      <trkpt lat="43.50978" lon="6.23661">
        <ele>137.3</ele>
        <time>2019-10-27T13:49:56Z</time>
      </trkpt>
      <trkpt lat="43.50978" lon="6.23674">
        <ele>137.9</ele>
        <time>2019-10-27T13:50:06Z</time>
      </trkpt>
      <trkpt lat="43.50979" lon="6.23688">
        <ele>138.4</ele>
        <time>2019-10-27T13:50:16Z</time>
      </trkpt>
      <trkpt lat="43.50982" lon="6.23701">
        <ele>138.9</ele>
        <time>2019-10-27T13:50:26Z</time>
      </trkpt>
      <trkpt lat="43.50985" lon="6.23712">
        <ele>139.1</ele>
        <time>2019-10-27T13:50:35Z</time>
      </trkpt>
      <trkpt lat="43.50984" lon="6.23725">
        <ele>139.1</ele>
        <time>2019-10-27T13:50:45Z</time>
      </trkpt>
      <trkpt lat="43.5098" lon="6.23737">
        <ele>139.1</ele>
        <time>2019-10-27T13:50:55Z</time>
      </trkpt>
      <trkpt lat="43.50982" lon="6.23751">
        <ele>139.1</ele>
        <time>2019-10-27T13:51:06Z</time>
      </trkpt>
      <trkpt lat="43.50979" lon="6.23764">
        <ele>139.1</ele>
        <time>2019-10-27T13:51:14Z</time>
      </trkpt>
      <trkpt lat="43.50974" lon="6.23774">
        <ele>139.3</ele>
        <time>2019-10-27T13:51:23Z</time>
      </trkpt>
      <trkpt lat="43.5097" lon="6.23785">
        <ele>139.7</ele>
        <time>2019-10-27T13:51:33Z</time>
      </trkpt>
      <trkpt lat="43.5097" lon="6.23798">
        <ele>140.1</ele>
        <time>2019-10-27T13:51:48Z</time>
      </trkpt>
      <trkpt lat="43.50969" lon="6.23811">
        <ele>140.5</ele>
        <time>2019-10-27T13:51:59Z</time>
      </trkpt>
      <trkpt lat="43.50972" lon="6.23824">
        <ele>140.8</ele>
        <time>2019-10-27T13:52:08Z</time>
      </trkpt>
      <trkpt lat="43.50975" lon="6.23838">
        <ele>141</ele>
        <time>2019-10-27T13:52:18Z</time>
      </trkpt>
      <trkpt lat="43.50975" lon="6.23852">
        <ele>141.1</ele>
        <time>2019-10-27T13:52:27Z</time>
      </trkpt>
      <trkpt lat="43.50977" lon="6.23865">
        <ele>140.7</ele>
        <time>2019-10-27T13:52:35Z</time>
      </trkpt>
      <trkpt lat="43.50981" lon="6.23877">
        <ele>140.4</ele>
        <time>2019-10-27T13:52:44Z</time>
      </trkpt>
      <trkpt lat="43.50985" lon="6.2389">
        <ele>140.3</ele>
        <time>2019-10-27T13:52:52Z</time>
      </trkpt>
      <trkpt lat="43.50988" lon="6.23902">
        <ele>140.3</ele>
        <time>2019-10-27T13:53:01Z</time>
      </trkpt>
      <trkpt lat="43.50987" lon="6.23915">
        <ele>140.3</ele>
        <time>2019-10-27T13:53:10Z</time>
      </trkpt>
      <trkpt lat="43.50989" lon="6.23928">
        <ele>140.3</ele>
        <time>2019-10-27T13:53:18Z</time>
      </trkpt>
      <trkpt lat="43.5099" lon="6.23941">
        <ele>140.2</ele>
        <time>2019-10-27T13:53:28Z</time>
      </trkpt>
      <trkpt lat="43.50988" lon="6.23953">
        <ele>140.3</ele>
        <time>2019-10-27T13:53:39Z</time>
      </trkpt>
      <trkpt lat="43.50982" lon="6.23963">
        <ele>140.6</ele>
        <time>2019-10-27T13:53:50Z</time>
      </trkpt>
      <trkpt lat="43.50974" lon="6.23969">
        <ele>140.7</ele>
        <time>2019-10-27T13:54:00Z</time>
      </trkpt>
      <trkpt lat="43.50966" lon="6.23972">
        <ele>140.7</ele>
        <time>2019-10-27T13:54:10Z</time>
      </trkpt>
      <trkpt lat="43.50958" lon="6.23978">
        <ele>141.3</ele>
        <time>2019-10-27T13:54:21Z</time>
      </trkpt>
      <trkpt lat="43.50949" lon="6.23983">
        <ele>141.6</ele>
        <time>2019-10-27T13:54:29Z</time>
      </trkpt>
      <trkpt lat="43.50941" lon="6.23992">
        <ele>141.4</ele>
        <time>2019-10-27T13:54:41Z</time>
      </trkpt>
      <trkpt lat="43.50933" lon="6.23999">
        <ele>141.2</ele>
        <time>2019-10-27T13:54:49Z</time>
      </trkpt>
      <trkpt lat="43.50925" lon="6.24007">
        <ele>141.3</ele>
        <time>2019-10-27T13:54:59Z</time>
      </trkpt>
      <trkpt lat="43.50918" lon="6.24014">
        <ele>141.1</ele>
        <time>2019-10-27T13:55:08Z</time>
      </trkpt>
      <trkpt lat="43.50914" lon="6.24026">
        <ele>141</ele>
        <time>2019-10-27T13:55:17Z</time>
      </trkpt>
      <trkpt lat="43.50908" lon="6.24037">
        <ele>140.7</ele>
        <time>2019-10-27T13:55:26Z</time>
      </trkpt>
      <trkpt lat="43.50902" lon="6.24048">
        <ele>140.9</ele>
        <time>2019-10-27T13:55:36Z</time>
      </trkpt>
      <trkpt lat="43.50901" lon="6.24061">
        <ele>140.6</ele>
        <time>2019-10-27T13:56:06Z</time>
      </trkpt>
      <trkpt lat="43.50902" lon="6.24074">
        <ele>140.5</ele>
        <time>2019-10-27T13:56:27Z</time>
      </trkpt>
      <trkpt lat="43.50902" lon="6.24088">
        <ele>140.5</ele>
        <time>2019-10-27T13:56:36Z</time>
      </trkpt>
      <trkpt lat="43.50903" lon="6.241">
        <ele>140.4</ele>
        <time>2019-10-27T13:56:47Z</time>
      </trkpt>
      <trkpt lat="43.50902" lon="6.24113">
        <ele>140.2</ele>
        <time>2019-10-27T13:56:58Z</time>
      </trkpt>
      <trkpt lat="43.50902" lon="6.24126">
        <ele>140</ele>
        <time>2019-10-27T13:57:08Z</time>
      </trkpt>
      <trkpt lat="43.50907" lon="6.24139">
        <ele>140</ele>
        <time>2019-10-27T13:57:19Z</time>
      </trkpt>
      <trkpt lat="43.50904" lon="6.24152">
        <ele>139.9</ele>
        <time>2019-10-27T13:57:30Z</time>
      </trkpt>
      <trkpt lat="43.50898" lon="6.24164">
        <ele>139.6</ele>
        <time>2019-10-27T13:57:39Z</time>
      </trkpt>
      <trkpt lat="43.50895" lon="6.24177">
        <ele>139.2</ele>
        <time>2019-10-27T13:57:49Z</time>
      </trkpt>
      <trkpt lat="43.50897" lon="6.2419">
        <ele>138.5</ele>
        <time>2019-10-27T13:57:58Z</time>
      </trkpt>
      <trkpt lat="43.50901" lon="6.24201">
        <ele>138.3</ele>
        <time>2019-10-27T13:58:07Z</time>
      </trkpt>
      <trkpt lat="43.50902" lon="6.24215">
        <ele>138.1</ele>
        <time>2019-10-27T13:58:15Z</time>
      </trkpt>
      <trkpt lat="43.50905" lon="6.24228">
        <ele>138</ele>
        <time>2019-10-27T13:58:21Z</time>
      </trkpt>
      <trkpt lat="43.50909" lon="6.2424">
        <ele>137.9</ele>
        <time>2019-10-27T13:58:29Z</time>
      </trkpt>
      <trkpt lat="43.50915" lon="6.24252">
        <ele>137.9</ele>
        <time>2019-10-27T13:58:35Z</time>
      </trkpt>
      <trkpt lat="43.50919" lon="6.24264">
        <ele>138</ele>
        <time>2019-10-27T13:58:43Z</time>
      </trkpt>
      <trkpt lat="43.50922" lon="6.24276">
        <ele>138.2</ele>
        <time>2019-10-27T13:58:52Z</time>
      </trkpt>
      <trkpt lat="43.50922" lon="6.2429">
        <ele>138.4</ele>
        <time>2019-10-27T13:59:01Z</time>
      </trkpt>
      <trkpt lat="43.50922" lon="6.24304">
        <ele>138.6</ele>
        <time>2019-10-27T13:59:11Z</time>
      </trkpt>
      <trkpt lat="43.50921" lon="6.24317">
        <ele>139.2</ele>
        <time>2019-10-27T13:59:22Z</time>
      </trkpt>
      <trkpt lat="43.50919" lon="6.2433">
        <ele>139.8</ele>
        <time>2019-10-27T13:59:31Z</time>
      </trkpt>
      <trkpt lat="43.50915" lon="6.24341">
        <ele>140.4</ele>
        <time>2019-10-27T13:59:41Z</time>
      </trkpt>
      <trkpt lat="43.50909" lon="6.24351">
        <ele>143.4</ele>
        <time>2019-10-27T14:00:41Z</time>
      </trkpt>
      <trkpt lat="43.50909" lon="6.24364">
        <ele>144.5</ele>
        <time>2019-10-27T14:01:37Z</time>
      </trkpt>
      <trkpt lat="43.50918" lon="6.24365">
        <ele>145</ele>
        <time>2019-10-27T14:01:52Z</time>
      </trkpt>
      <trkpt lat="43.50926" lon="6.24359">
        <ele>145.3</ele>
        <time>2019-10-27T14:02:02Z</time>
      </trkpt>
      <trkpt lat="43.50933" lon="6.24351">
        <ele>145.3</ele>
        <time>2019-10-27T14:02:12Z</time>
      </trkpt>
      <trkpt lat="43.50942" lon="6.24344">
        <ele>145.4</ele>
        <time>2019-10-27T14:02:22Z</time>
      </trkpt>
      <trkpt lat="43.50948" lon="6.24335">
        <ele>145.5</ele>
        <time>2019-10-27T14:02:31Z</time>
      </trkpt>
      <trkpt lat="43.50956" lon="6.24326">
        <ele>145.8</ele>
        <time>2019-10-27T14:02:40Z</time>
      </trkpt>
      <trkpt lat="43.50963" lon="6.24318">
        <ele>145.9</ele>
        <time>2019-10-27T14:02:49Z</time>
      </trkpt>
      <trkpt lat="43.50969" lon="6.24308">
        <ele>146.5</ele>
        <time>2019-10-27T14:03:00Z</time>
      </trkpt>
      <trkpt lat="43.50978" lon="6.24303">
        <ele>146.4</ele>
        <time>2019-10-27T14:03:09Z</time>
      </trkpt>
      <trkpt lat="43.50986" lon="6.24296">
        <ele>146.4</ele>
        <time>2019-10-27T14:03:19Z</time>
      </trkpt>
      <trkpt lat="43.50995" lon="6.2429">
        <ele>146.3</ele>
        <time>2019-10-27T14:03:33Z</time>
      </trkpt>
      <trkpt lat="43.51002" lon="6.24282">
        <ele>146.1</ele>
        <time>2019-10-27T14:03:42Z</time>
      </trkpt>
      <trkpt lat="43.51011" lon="6.2428">
        <ele>145.6</ele>
        <time>2019-10-27T14:03:53Z</time>
      </trkpt>
      <trkpt lat="43.51018" lon="6.24271">
        <ele>145.2</ele>
        <time>2019-10-27T14:04:04Z</time>
      </trkpt>
      <trkpt lat="43.51027" lon="6.24266">
        <ele>144.7</ele>
        <time>2019-10-27T14:04:15Z</time>
      </trkpt>
      <trkpt lat="43.51036" lon="6.24264">
        <ele>144.3</ele>
        <time>2019-10-27T14:04:23Z</time>
      </trkpt>
      <trkpt lat="43.51045" lon="6.24263">
        <ele>143.9</ele>
        <time>2019-10-27T14:04:37Z</time>
      </trkpt>
      <trkpt lat="43.51054" lon="6.24259">
        <ele>144</ele>
        <time>2019-10-27T14:04:51Z</time>
      </trkpt>
      <trkpt lat="43.51062" lon="6.24251">
        <ele>144.2</ele>
        <time>2019-10-27T14:05:04Z</time>
      </trkpt>
      <trkpt lat="43.5107" lon="6.24244">
        <ele>144.2</ele>
        <time>2019-10-27T14:05:16Z</time>
      </trkpt>
      <trkpt lat="43.51075" lon="6.24232">
        <ele>144.2</ele>
        <time>2019-10-27T14:05:27Z</time>
      </trkpt>
      <trkpt lat="43.51076" lon="6.24219">
        <ele>144.2</ele>
        <time>2019-10-27T14:05:36Z</time>
      </trkpt>
      <trkpt lat="43.51077" lon="6.24206">
        <ele>144.3</ele>
        <time>2019-10-27T14:05:46Z</time>
      </trkpt>
      <trkpt lat="43.5108" lon="6.24194">
        <ele>144.3</ele>
        <time>2019-10-27T14:05:53Z</time>
      </trkpt>
      <trkpt lat="43.51074" lon="6.24184">
        <ele>144.2</ele>
        <time>2019-10-27T14:06:02Z</time>
      </trkpt>
      <trkpt lat="43.51068" lon="6.24175">
        <ele>144.6</ele>
        <time>2019-10-27T14:06:22Z</time>
      </trkpt>
      <trkpt lat="43.5106" lon="6.24169">
        <ele>145.6</ele>
        <time>2019-10-27T14:06:55Z</time>
      </trkpt>
      <trkpt lat="43.5105" lon="6.24172">
        <ele>146.1</ele>
        <time>2019-10-27T14:07:18Z</time>
      </trkpt>
      <trkpt lat="43.51042" lon="6.24166">
        <ele>146.3</ele>
        <time>2019-10-27T14:07:35Z</time>
      </trkpt>
      <trkpt lat="43.51046" lon="6.24154">
        <ele>147.3</ele>
        <time>2019-10-27T14:07:51Z</time>
      </trkpt>
      <trkpt lat="43.51053" lon="6.24146">
        <ele>148.3</ele>
        <time>2019-10-27T14:08:02Z</time>
      </trkpt>
      <trkpt lat="43.51061" lon="6.24138">
        <ele>149.2</ele>
        <time>2019-10-27T14:08:16Z</time>
      </trkpt>
      <trkpt lat="43.51069" lon="6.24132">
        <ele>149.5</ele>
        <time>2019-10-27T14:08:28Z</time>
      </trkpt>
      <trkpt lat="43.51077" lon="6.24127">
        <ele>149.7</ele>
        <time>2019-10-27T14:08:37Z</time>
      </trkpt>
      <trkpt lat="43.51086" lon="6.24122">
        <ele>150.5</ele>
        <time>2019-10-27T14:09:13Z</time>
      </trkpt>
      <trkpt lat="43.51095" lon="6.24117">
        <ele>150.8</ele>
        <time>2019-10-27T14:09:25Z</time>
      </trkpt>
      <trkpt lat="43.51103" lon="6.24112">
        <ele>151.6</ele>
        <time>2019-10-27T14:09:47Z</time>
      </trkpt>
      <trkpt lat="43.51109" lon="6.24102">
        <ele>151.9</ele>
        <time>2019-10-27T14:10:03Z</time>
      </trkpt>
      <trkpt lat="43.51108" lon="6.2409">
        <ele>151.8</ele>
        <time>2019-10-27T14:10:21Z</time>
      </trkpt>
      <trkpt lat="43.51109" lon="6.24091">
        <ele>151.8</ele>
        <time>2019-10-27T14:11:14Z</time>
      </trkpt>
    </trkseg>
  </trk>
</gpx>